Data for 02/02/2007

Time Sea-Level Adjusted Pressure Absolute Pressure Temperature Relative Humidity Dew Point Precipitation   
(mb) (inHg) (mb) (inHg) (C) (F) (%) (C) (F) (mm) (in)
00:01 1019 30.09 849 25.07 -24.3 -11.7 69 -28.5 -19.3 0
00:02 1019 30.09 849 25.07 -24.3 -11.7 69 -28.5 -19.2 0
00:03 1019 30.09 849 25.07 -24.2 -11.6 70 -28.2 -18.8 0
00:04 1019 30.09 848 25.04 -24.1 -11.3 68 -28.5 -19.3 0
00:05 1019 30.09 848 25.04 -24.1 -11.4 68 -28.4 -19.2 0
00:06 1019 30.09 849 25.07 -24.1 -11.4 68 -28.4 -19.2 0
00:07 1019 30.09 848 25.04 -24.2 -11.5 68 -28.5 -19.3 0
00:08 1019 30.09 848 25.04 -24.2 -11.6 68 -28.5 -19.3 0
00:09 1019 30.09 848 25.04 -24.2 -11.5 68 -28.5 -19.4 0
00:10 1019 30.09 848 25.04 -24.2 -11.6 68 -28.6 -19.5 0
00:11 1019 30.09 848 25.04 -24.3 -11.7 69 -28.5 -19.4 0
00:12 1019 30.09 848 25.04 -24.2 -11.5 68 -28.4 -19.1 0
00:13 1019 30.09 848 25.04 -24.1 -11.4 68 -28.4 -19.2 0
00:14 1019 30.09 848 25.04 -24 -11.1 69 -28.2 -18.8 0
00:15 1019 30.09 848 25.04 -24 -11.1 67 -28.5 -19.3 0
00:16 1019 30.09 848 25.04 -24 -11.2 68 -28.3 -19 0
00:17 1019 30.09 848 25.04 -23.9 -11 67 -28.4 -19.2 0
00:18 1019 30.09 848 25.04 -24.1 -11.3 68 -28.4 -19.1 0
00:19 1019 30.09 848 25.04 -23.8 -10.9 68 -28.2 -18.7 0
00:20 1019 30.09 848 25.04 -23.8 -10.8 67 -28.4 -19.1 0
00:21 1019 30.09 848 25.04 -23.9 -11 66 -28.6 -19.5 0
00:22 1019 30.09 848 25.04 -24 -11.3 66 -28.7 -19.7 0
00:23 1019 30.09 848 25.04 -24.2 -11.6 67 -28.7 -19.6 0
00:24 1019 30.09 848 25.04 -24.3 -11.7 64 -29.2 -20.6 0
00:25 1019 30.09 848 25.04 -24.6 -12.3 66 -29.2 -20.6 0
00:26 1019 30.09 848 25.04 -24.6 -12.3 68 -29 -20.1 0
00:27 1019 30.09 848 25.04 -24.6 -12.3 67 -29.2 -20.5 0
00:28 1019 30.09 848 25.04 -24.7 -12.5 67 -29.3 -20.7 0
00:29 1019 30.09 848 25.04 -24.7 -12.5 68 -29.1 -20.3 0
00:30 1019 30.09 848 25.04 -24.8 -12.7 66 -29.4 -20.9 0
00:31 1019 30.09 848 25.04 -25 -12.9 67 -29.5 -21.1 0
00:32 1019 30.09 848 25.04 -25.1 -13.3 68 -29.5 -21.1 0
00:33 1019 30.09 848 25.04 -25.1 -13.2 69 -29.3 -20.7 0
00:34 1019 30.09 848 25.04 -25 -13.1 68 -29.4 -20.9 0
00:35 1019 30.09 848 25.04 -25 -13 67 -29.5 -21 0
00:36 1019 30.09 848 25.04 -25 -13 67 -29.5 -21 0
00:37 1019 30.09 848 25.04 -25 -12.9 68 -29.2 -20.6 0
00:38 1019 30.09 848 25.04 -24.8 -12.7 67 -29.2 -20.6 0
00:39 1019 30.09 848 25.04 -24.9 -12.7 66 -29.5 -21.1 0
00:40 1019 30.09 848 25.04 -24.9 -12.8 66 -29.5 -21.1 0
00:41 1019 30.09 848 25.04 -25 -13 66 -29.6 -21.3 0
00:42 1019 30.09 848 25.04 -25 -13 66 -29.6 -21.3 0
00:43 1019 30.09 848 25.04 -25 -13 66 -29.6 -21.3 0
00:44 1019 30.09 848 25.04 -24.9 -12.9 67 -29.4 -20.9 0
00:45 1019 30.09 848 25.04 -24.7 -12.5 68 -29.1 -20.3 0
00:46 1019 30.09 848 25.04 -24.5 -12.1 67 -29 -20.2 0
00:47 1019 30.09 848 25.04 -24.3 -11.7 67 -28.7 -19.7 0
00:48 1019 30.09 848 25.04 -24 -11.1 67 -28.5 -19.2 0
00:49 1019 30.09 848 25.04 -23.6 -10.5 65 -28.4 -19.2 0
00:50 1019 30.09 848 25.04 -23.5 -10.3 64 -28.5 -19.3 0
00:51 1019 30.09 848 25.04 -23.5 -10.3 65 -28.4 -19.1 0
00:52 1019 30.09 848 25.04 -23.4 -10.1 66 -28.1 -18.6 0
00:53 1019 30.09 848 25.04 -23.2 -9.8 65 -28.1 -18.5 0
00:54 1019 30.09 848 25.04 -23.1 -9.6 66 -27.8 -18.1 0
00:55 1019 30.09 848 25.04 -23 -9.3 65 -27.9 -18.1 0
00:56 1019 30.09 848 25.04 -23 -9.3 65 -27.9 -18.3 0
00:57 1019 30.09 848 25.04 -23 -9.3 65 -27.8 -18 0
00:58 1019 30.09 848 25.04 -22.9 -9.2 66 -27.7 -17.8 0
00:59 1019 30.09 848 25.04 -22.8 -9 66 -27.5 -17.5 0
01:00 1019 30.09 848 25.04 -22.7 -8.8 66 -27.4 -17.4 0
01:01 1019 30.09 848 25.04 -22.7 -8.8 65 -27.5 -17.5 0
01:02 1019 30.09 848 25.04 -22.6 -8.7 66 -27.3 -17.2 0
01:03 1019 30.09 848 25.04 -22.6 -8.7 67 -27.3 -17.1 0
01:04 1019 30.09 848 25.04 -22.6 -8.7 67 -27.2 -16.9 0
01:05 1019 30.09 848 25.04 -22.5 -8.4 67 -27 -16.5 0
01:06 1019 30.09 848 25.04 -22.3 -8.2 67 -26.8 -16.3 0
01:07 1019 30.09 848 25.04 -22.2 -7.9 67 -26.8 -16.2 0
01:08 1019 30.09 848 25.04 -22 -7.7 67 -26.7 -16 0
01:09 1019 30.09 848 25.04 -22 -7.6 66 -26.7 -16 0
01:10 1018 30.06 848 25.04 -21.9 -7.4 67 -26.5 -15.7 0
01:11 1018 30.06 848 25.04 -21.8 -7.2 67 -26.4 -15.5 0
01:12 1019 30.09 848 25.04 -21.6 -6.9 67 -26.3 -15.3 0
01:13 1019 30.09 848 25.04 -21.4 -6.6 66 -26.2 -15.2 0
01:14 1019 30.09 848 25.04 -21.3 -6.4 66 -26.1 -15.1 0
01:15 1018 30.06 848 25.04 -21.2 -6.1 66 -26 -14.8 0
01:16 1018 30.06 848 25.04 -21.1 -6 66 -25.9 -14.6 0
01:17 1018 30.06 848 25.04 -21 -5.8 66 -25.8 -14.5 0
01:18 1018 30.06 848 25.04 -20.9 -5.6 66 -25.8 -14.4 0
01:19 1018 30.06 848 25.04 -20.8 -5.4 65 -25.7 -14.3 0
01:20 1018 30.06 848 25.04 -20.6 -5.1 65 -25.6 -14 0
01:21 1018 30.06 848 25.04 -20.5 -4.9 65 -25.5 -13.9 0
01:22 1018 30.06 848 25.04 -20.5 -4.9 65 -25.5 -13.9 0
01:23 1018 30.06 847 25.01 -20.4 -4.8 65 -25.4 -13.8 0
01:24 1018 30.06 847 25.01 -20.4 -4.7 65 -25.3 -13.5 0
01:25 1018 30.06 847 25.01 -20.4 -4.7 66 -25.3 -13.5 0
01:26 1018 30.06 847 25.01 -20.4 -4.7 66 -25.1 -13.3 0
01:27 1018 30.06 847 25.01 -20.3 -4.6 66 -25.1 -13.2 0
01:28 1018 30.06 847 25.01 -20.3 -4.6 66 -25.1 -13.2 0
01:29 1018 30.06 847 25.01 -20.3 -4.5 67 -24.9 -12.8 0
01:30 1018 30.06 847 25.01 -20.3 -4.5 67 -24.8 -12.7 0
01:31 1018 30.06 847 25.01 -20.2 -4.4 68 -24.8 -12.6 0
01:32 1018 30.06 847 25.01 -20.2 -4.3 67 -24.8 -12.6 0
01:33 1018 30.06 847 25.01 -20.1 -4.1 66 -24.8 -12.7 0
01:34 1018 30.06 847 25.01 -20 -4 67 -24.7 -12.4 0
01:35 1018 30.06 847 25.01 -19.9 -3.9 68 -24.5 -12.1 0
01:36 1018 30.06 847 25.01 -20 -4 68 -24.5 -12.1 0
01:37 1018 30.06 847 25.01 -20 -3.9 68 -24.4 -11.9 0
01:38 1018 30.06 847 25.01 -19.9 -3.8 69 -24.3 -11.7 0
01:39 1018 30.06 847 25.01 -19.8 -3.7 68 -24.4 -11.9 0
01:40 1018 30.06 847 25.01 -19.8 -3.6 67 -24.4 -11.9 0
01:41 1018 30.06 847 25.01 -19.6 -3.4 67 -24.3 -11.8 0
01:42 1018 30.06 847 25.01 -19.5 -3.2 67 -24.2 -11.6 0
01:43 1018 30.06 847 25.01 -19.4 -3 65 -24.4 -11.9 0
01:44 1018 30.06 847 25.01 -19.3 -2.7 65 -24.3 -11.7 0
01:45 1018 30.06 847 25.01 -19.2 -2.6 66 -24.1 -11.3 0
01:46 1018 30.06 847 25.01 -19.2 -2.5 65 -24.1 -11.5 0
01:47 1018 30.06 847 25.01 -19.1 -2.4 65 -24.1 -11.4 0
01:48 1018 30.06 847 25.01 -19.1 -2.3 66 -24 -11.2 0
01:49 1018 30.06 847 25.01 -19.1 -2.3 66 -24 -11.1 0
01:50 1018 30.06 847 25.01 -19 -2.3 66 -23.9 -11 0
01:51 1018 30.06 847 25.01 -19 -2.3 67 -23.7 -10.6 0
01:52 1018 30.06 847 25.01 -19 -2.2 67 -23.6 -10.5 0
01:53 1018 30.06 847 25.01 -19 -2.2 67 -23.7 -10.6 0
01:54 1018 30.06 847 25.01 -19 -2.1 66 -23.7 -10.7 0
01:55 1018 30.06 847 25.01 -18.9 -1.9 65 -23.9 -11 0
01:56 1018 30.06 847 25.01 -18.8 -1.8 66 -23.7 -10.6 0
01:57 1018 30.06 847 25.01 -18.8 -1.8 65 -23.7 -10.7 0
01:58 1018 30.06 847 25.01 -18.7 -1.7 65 -23.8 -10.8 0
01:59 1018 30.06 847 25.01 -18.6 -1.6 65 -23.7 -10.7 0
02:00 1018 30.06 847 25.01 -18.6 -1.5 65 -23.6 -10.5 0
02:01 1018 30.06 847 25.01 -18.6 -1.4 65 -23.7 -10.6 0
02:02 1018 30.06 847 25.01 -18.6 -1.4 64 -23.8 -10.9 0
02:03 1018 30.06 847 25.01 -18.5 -1.3 64 -23.7 -10.6 0
02:04 1018 30.06 847 25.01 -18.4 -1.2 64 -23.6 -10.5 0
02:05 1018 30.06 847 25.01 -18.4 -1.2 64 -23.7 -10.7 0
02:06 1018 30.06 847 25.01 -18.4 -1.1 62 -23.9 -11.1 0
02:07 1018 30.06 847 25.01 -18.4 -1.1 63 -23.8 -10.9 0
02:08 1018 30.06 847 25.01 -18.3 -1 63 -23.8 -10.8 0
02:09 1018 30.06 847 25.01 -18.3 -0.9 63 -23.7 -10.7 0
02:10 1018 30.06 847 25.01 -18.2 -0.8 63 -23.6 -10.5 0
02:11 1018 30.06 847 25.01 -18.2 -0.7 63 -23.6 -10.5 0
02:12 1018 30.06 847 25.01 -18.1 -0.6 63 -23.6 -10.5 0
02:13 1018 30.06 847 25.01 -18.2 -0.7 63 -23.6 -10.5 0
02:14 1018 30.06 847 25.01 -18.1 -0.6 63 -23.5 -10.3 0
02:15 1018 30.06 847 25.01 -18.1 -0.6 64 -23.4 -10 0
02:16 1018 30.06 847 25.01 -18.1 -0.6 65 -23.3 -9.9 0
02:17 1018 30.06 847 25.01 -18.1 -0.6 64 -23.4 -10.1 0
02:18 1018 30.06 847 25.01 -18.1 -0.6 64 -23.4 -10.2 0
02:19 1018 30.06 847 25.01 -18.1 -0.6 63 -23.5 -10.2 0
02:20 1018 30.06 847 25.01 -18.1 -0.6 64 -23.4 -10.2 0
02:21 1018 30.06 847 25.01 -18.1 -0.7 63 -23.5 -10.3 0
02:22 1018 30.06 847 25.01 -18.2 -0.7 64 -23.4 -10.2 0
02:23 1018 30.06 847 25.01 -18.2 -0.7 64 -23.4 -10.2 0
02:24 1018 30.06 847 25.01 -18.1 -0.7 63 -23.5 -10.3 0
02:25 1018 30.06 847 25.01 -18.2 -0.7 64 -23.4 -10.2 0
02:26 1018 30.06 847 25.01 -18.2 -0.7 64 -23.4 -10.1 0
02:27 1018 30.06 847 25.01 -18.1 -0.6 64 -23.3 -10 0
02:28 1018 30.06 847 25.01 -18.1 -0.6 64 -23.3 -10 0
02:29 1018 30.06 847 25.01 -18.1 -0.6 64 -23.4 -10.1 0
02:30 1018 30.06 847 25.01 -18.1 -0.5 64 -23.3 -10 0
02:31 1018 30.06 847 25.01 -18.1 -0.5 64 -23.3 -9.9 0
02:32 1018 30.06 847 25.01 -18.1 -0.5 65 -23.2 -9.7 0
02:33 1018 30.06 847 25.01 -18.1 -0.6 65 -23.1 -9.6 0
02:34 1018 30.06 847 25.01 -18.1 -0.6 66 -23 -9.4 0
02:35 1018 30.06 847 25.01 -18.1 -0.6 66 -23 -9.5 0
02:36 1018 30.06 847 25.01 -18.1 -0.7 66 -23.1 -9.5 0
02:37 1018 30.06 847 25.01 -18.1 -0.7 66 -23 -9.5 0
02:38 1018 30.06 847 25.01 -18.1 -0.6 66 -23 -9.4 0
02:39 1018 30.06 847 25.01 -18.1 -0.6 65 -23.1 -9.6 0
02:40 1018 30.06 847 25.01 -18.1 -0.6 65 -23.1 -9.6 0
02:41 1018 30.06 847 25.01 -18.1 -0.6 65 -23.2 -9.7 0
02:42 1018 30.06 847 25.01 -18.1 -0.5 65 -23.2 -9.7 0
02:43 1018 30.06 847 25.01 -18 -0.5 65 -23.1 -9.6 0
02:44 1018 30.06 847 25.01 -18 -0.5 64 -23.2 -9.8 0
02:45 1018 30.06 847 25.01 -18 -0.4 65 -23.1 -9.6 0
02:46 1018 30.06 847 25.01 -18 -0.4 65 -23.1 -9.6 0
02:47 1018 30.06 847 25.01 -18 -0.4 65 -23.1 -9.6 0
02:48 1018 30.06 847 25.01 -18 -0.3 65 -23.1 -9.5 0
02:49 1018 30.06 847 25.01 -18 -0.3 65 -23 -9.4 0
02:50 1018 30.06 847 25.01 -18 -0.3 65 -23 -9.4 0
02:51 1018 30.06 847 25.01 -17.9 -0.3 65 -23 -9.3 0
02:52 1018 30.06 847 25.01 -17.9 -0.2 65 -22.9 -9.2 0
02:53 1018 30.06 847 25.01 -17.9 -0.2 65 -22.9 -9.2 0
02:54 1018 30.06 847 25.01 -17.9 -0.1 66 -22.8 -9.1 0
02:55 1018 30.06 847 25.01 -17.8 -0.1 65 -22.9 -9.2 0
02:56 1018 30.06 847 25.01 -17.8 -0 65 -22.8 -9 0
02:57 1018 30.06 847 25.01 -17.8 0.1 66 -22.7 -8.9 0
02:58 1018 30.06 847 25.01 -17.7 0.1 66 -22.7 -8.9 0
02:59 1018 30.06 847 25.01 -17.7 0.1 66 -22.7 -8.8 0
03:00 1018 30.06 847 25.01 -17.7 0.2 67 -22.4 -8.4 0
03:01 1018 30.06 847 25.01 -17.7 0.2 66 -22.5 -8.5 0
03:02 1018 30.06 847 25.01 -17.6 0.3 67 -22.3 -8.2 0
03:03 1018 30.06 847 25.01 -17.6 0.4 67 -22.4 -8.3 0
03:04 1018 30.06 847 25.01 -17.5 0.5 67 -22.3 -8.2 0
03:05 1017 30.03 847 25.01 -17.5 0.5 66 -22.4 -8.2 0
03:06 1017 30.03 847 25.01 -17.4 0.7 65 -22.4 -8.4 0
03:07 1017 30.03 847 25.01 -17.4 0.8 66 -22.2 -7.9 0
03:08 1017 30.03 847 25.01 -17.4 0.8 67 -22.2 -7.9 0
03:09 1017 30.03 847 25.01 -17.3 0.9 66 -22.2 -7.9 0
03:10 1017 30.03 847 25.01 -17.2 1 67 -22.1 -7.7 0
03:11 1017 30.03 847 25.01 -17.2 1 67 -22 -7.6 0
03:12 1017 30.03 847 25.01 -17.1 1.1 67 -21.9 -7.5 0
03:13 1017 30.03 847 25.01 -17.1 1.2 66 -22 -7.6 0
03:14 1017 30.03 847 25.01 -17.1 1.2 67 -21.9 -7.3 0
03:15 1017 30.03 847 25.01 -17.1 1.2 67 -21.9 -7.3 0
03:16 1017 30.03 847 25.01 -17.1 1.3 67 -21.9 -7.4 0
03:17 1017 30.03 847 25.01 -17 1.4 66 -21.9 -7.5 0
03:18 1017 30.03 847 25.01 -17 1.4 66 -21.9 -7.4 0
03:19 1017 30.03 846 24.98 -17 1.4 66 -21.9 -7.4 0
03:20 1017 30.03 846 24.98 -17 1.5 67 -21.8 -7.2 0
03:21 1017 30.03 846 24.98 -17 1.5 67 -21.8 -7.2 0
03:22 1017 30.03 847 25.01 -17 1.5 66 -21.9 -7.4 0
03:23 1017 30.03 847 25.01 -16.9 1.5 67 -21.8 -7.2 0
03:24 1017 30.03 847 25.01 -16.9 1.6 66 -21.8 -7.3 0
03:25 1017 30.03 847 25.01 -17 1.5 65 -22 -7.6 0
03:26 1017 30.03 847 25.01 -17 1.5 67 -21.8 -7.2 0
03:27 1017 30.03 847 25.01 -17 1.5 66 -21.8 -7.3 0
03:28 1017 30.03 847 25.01 -17 1.4 67 -21.8 -7.3 0
03:29 1017 30.03 847 25.01 -17 1.5 66 -21.9 -7.4 0
03:30 1017 30.03 847 25.01 -16.9 1.5 66 -21.9 -7.5 0
03:31 1018 30.06 847 25.01 -16.9 1.6 66 -21.9 -7.4 0
03:32 1018 30.06 847 25.01 -16.9 1.5 66 -21.9 -7.5 0
03:33 1017 30.03 847 25.01 -16.9 1.5 66 -21.9 -7.4 0
03:34 1017 30.03 847 25.01 -16.9 1.6 67 -21.7 -7.1 0
03:35 1017 30.03 847 25.01 -16.9 1.5 67 -21.8 -7.2 0
03:36 1017 30.03 847 25.01 -16.9 1.6 67 -21.7 -7 0
03:37 1018 30.06 847 25.01 -16.9 1.6 67 -21.7 -7.1 0
03:38 1018 30.06 847 25.01 -16.9 1.6 67 -21.6 -6.9 0
03:39 1018 30.06 847 25.01 -16.9 1.7 67 -21.6 -6.9 0
03:40 1018 30.06 847 25.01 -16.9 1.7 67 -21.6 -6.8 0
03:41 1018 30.06 847 25.01 -16.8 1.7 67 -21.7 -7 0
03:42 1017 30.03 847 25.01 -16.8 1.7 67 -21.7 -7 0
03:43 1017 30.03 847 25.01 -16.8 1.7 68 -21.5 -6.6 0
03:44 1017 30.03 847 25.01 -16.8 1.7 68 -21.4 -6.4 0
03:45 1017 30.03 847 25.01 -16.9 1.7 68 -21.4 -6.6 0
03:46 1017 30.03 847 25.01 -16.9 1.6 68 -21.4 -6.5 0
03:47 1017 30.03 847 25.01 -16.9 1.6 68 -21.4 -6.6 0
03:48 1017 30.03 847 25.01 -16.9 1.5 66 -21.9 -7.3 0
03:49 1017 30.03 847 25.01 -17 1.5 66 -21.9 -7.5 0
03:50 1018 30.06 847 25.01 -17 1.5 65 -22 -7.6 0
03:51 1018 30.06 847 25.01 -16.9 1.6 66 -21.9 -7.5 0
03:52 1018 30.06 847 25.01 -16.9 1.5 67 -21.6 -6.9 0
03:53 1018 30.06 847 25.01 -17 1.5 68 -21.5 -6.8 0
03:54 1018 30.06 847 25.01 -17 1.5 68 -21.6 -6.8 0
03:55 1018 30.06 847 25.01 -17 1.4 68 -21.6 -6.9 0
03:56 1018 30.06 847 25.01 -17.1 1.3 68 -21.6 -6.9 0
03:57 1018 30.06 847 25.01 -17.1 1.3 68 -21.7 -7.1 0
03:58 1018 30.06 847 25.01 -17.1 1.3 69 -21.5 -6.8 0
03:59 1018 30.06 847 25.01 -17.1 1.2 69 -21.5 -6.6 0
04:00 1018 30.06 847 25.01 -17.1 1.2 69 -21.5 -6.6 0
04:01 1018 30.06 847 25.01 -17.2 1.1 70 -21.4 -6.4 0
04:02 1017 30.03 847 25.01 -17.2 1.1 71 -21.3 -6.3 0
04:03 1017 30.03 847 25.01 -17.2 1 71 -21.3 -6.4 0
04:04 1017 30.03 847 25.01 -17.3 0.9 70 -21.5 -6.7 0
04:05 1017 30.03 847 25.01 -17.3 0.8 71 -21.4 -6.5 0
04:06 1017 30.03 847 25.01 -17.4 0.7 73 -21.2 -6.1 0
04:07 1017 30.03 846 24.98 -17.4 0.7 73 -21.2 -6.1 0
04:08 1017 30.03 846 24.98 -17.4 0.6 72 -21.4 -6.6 0
04:09 1017 30.03 846 24.98 -17.5 0.5 72 -21.5 -6.6 0
04:10 1017 30.03 846 24.98 -17.6 0.4 73 -21.3 -6.4 0
04:11 1017 30.03 846 24.98 -17.6 0.3 73 -21.3 -6.4 0
04:12 1017 30.03 846 24.98 -17.6 0.3 73 -21.4 -6.6 0
04:13 1017 30.03 846 24.98 -17.7 0.2 72 -21.5 -6.7 0
04:14 1017 30.03 846 24.98 -17.7 0.2 74 -21.3 -6.4 0
04:15 1017 30.03 846 24.98 -17.7 0.2 74 -21.2 -6.1 0
04:16 1017 30.03 846 24.98 -17.7 0.1 75 -21.2 -6.2 0
04:17 1017 30.03 847 25.01 -17.7 0.1 74 -21.3 -6.3 0
04:18 1017 30.03 846 24.98 -17.7 0.1 75 -21.2 -6.2 0
04:19 1017 30.03 846 24.98 -17.7 0.1 74 -21.3 -6.3 0
04:20 1017 30.03 846 24.98 -17.8 0 74 -21.4 -6.5 0
04:21 1017 30.03 847 25.01 -17.8 0 74 -21.4 -6.4 0
04:22 1017 30.03 847 25.01 -17.8 0 75 -21.2 -6.2 0
04:23 1017 30.03 847 25.01 -17.8 -0 75 -21.1 -6.1 0
04:24 1017 30.03 847 25.01 -17.8 0 75 -21.1 -6 0
04:25 1017 30.03 847 25.01 -17.8 0 75 -21.2 -6.1 0
04:26 1017 30.03 847 25.01 -17.8 0.1 75 -21.2 -6.2 0
04:27 1017 30.03 847 25.01 -17.8 -0 75 -21.2 -6.2 0
04:28 1017 30.03 847 25.01 -17.8 -0 75 -21.3 -6.3 0
04:29 1017 30.03 847 25.01 -17.8 -0 75 -21.2 -6.1 0
04:30 1017 30.03 847 25.01 -17.8 -0.1 74 -21.3 -6.4 0
04:31 1017 30.03 847 25.01 -17.8 -0.1 74 -21.4 -6.5 0
04:32 1017 30.03 847 25.01 -17.9 -0.1 74 -21.4 -6.6 0
04:33 1017 30.03 847 25.01 -17.9 -0.2 74 -21.4 -6.6 0
04:34 1017 30.03 847 25.01 -17.9 -0.2 75 -21.4 -6.5 0
04:35 1017 30.03 847 25.01 -17.9 -0.2 74 -21.4 -6.6 0
04:36 1017 30.03 847 25.01 -17.9 -0.1 74 -21.5 -6.7 0
04:37 1017 30.03 847 25.01 -17.9 -0.2 74 -21.5 -6.7 0
04:38 1017 30.03 847 25.01 -17.9 -0.1 74 -21.4 -6.6 0
04:39 1017 30.03 847 25.01 -17.9 -0.1 74 -21.5 -6.6 0
04:40 1017 30.03 847 25.01 -17.9 -0.2 74 -21.5 -6.7 0
04:41 1017 30.03 847 25.01 -17.8 -0.1 73 -21.5 -6.7 0
04:42 1017 30.03 847 25.01 -17.8 -0 74 -21.4 -6.5 0
04:43 1017 30.03 847 25.01 -17.8 -0 74 -21.3 -6.4 0
04:44 1017 30.03 847 25.01 -17.8 0 75 -21.2 -6.2 0
04:45 1017 30.03 847 25.01 -17.8 0.1 75 -21.2 -6.2 0
04:46 1017 30.03 847 25.01 -17.7 0.1 75 -21.2 -6.1 0
04:47 1017 30.03 847 25.01 -17.7 0.1 75 -21.1 -6 0
04:48 1017 30.03 847 25.01 -17.7 0.2 76 -21 -5.8 0
04:49 1018 30.06 847 25.01 -17.6 0.3 76 -20.8 -5.5 0
04:50 1018 30.06 847 25.01 -17.6 0.3 76 -20.8 -5.5 0
04:51 1017 30.03 847 25.01 -17.5 0.4 76 -20.8 -5.5 0
04:52 1017 30.03 847 25.01 -17.5 0.6 76 -20.8 -5.4 0
04:53 1017 30.03 847 25.01 -17.5 0.6 76 -20.8 -5.4 0
04:54 1017 30.03 847 25.01 -17.4 0.6 76 -20.8 -5.4 0
04:55 1017 30.03 847 25.01 -17.4 0.7 76 -20.7 -5.2 0
04:56 1017 30.03 847 25.01 -17.4 0.8 75 -20.7 -5.3 0
04:57 1017 30.03 847 25.01 -17.4 0.8 75 -20.8 -5.5 0
04:58 1017 30.03 846 24.98 -17.4 0.8 75 -20.8 -5.5 0
04:59 1017 30.03 847 25.01 -17.3 0.8 75 -20.8 -5.4 0
05:00 1017 30.03 847 25.01 -17.3 0.9 75 -20.7 -5.3 0
05:01 1017 30.03 846 24.98 -17.3 0.9 75 -20.7 -5.3 0
05:02 1017 30.03 847 25.01 -17.3 0.9 75 -20.7 -5.3 0
05:03 1017 30.03 847 25.01 -17.3 0.9 75 -20.7 -5.3 0
05:04 1017 30.03 847 25.01 -17.3 0.9 75 -20.6 -5.2 0
05:05 1017 30.03 847 25.01 -17.3 1 75 -20.6 -5.1 0
05:06 1017 30.03 847 25.01 -17.2 1 75 -20.6 -5.2 0
05:07 1017 30.03 847 25.01 -17.2 1 76 -20.6 -5 0
05:08 1017 30.03 847 25.01 -17.2 1 76 -20.6 -5 0
05:09 1018 30.06 847 25.01 -17.2 1 76 -20.5 -4.9 0
05:10 1018 30.06 847 25.01 -17.2 1 76 -20.5 -4.9 0
05:11 1018 30.06 847 25.01 -17.2 1 76 -20.5 -4.9 0
05:12 1018 30.06 847 25.01 -17.2 1.1 76 -20.4 -4.7 0
05:13 1018 30.06 847 25.01 -17.1 1.2 77 -20.3 -4.6 0
05:14 1018 30.06 847 25.01 -17.1 1.2 77 -20.2 -4.4 0
05:15 1017 30.03 847 25.01 -17.1 1.3 77 -20.2 -4.4 0
05:16 1017 30.03 847 25.01 -17 1.3 77 -20.2 -4.3 0
05:17 1017 30.03 847 25.01 -17 1.4 77 -20.2 -4.3 0
05:18 1017 30.03 847 25.01 -16.9 1.5 76 -20.2 -4.3 0
05:19 1017 30.03 847 25.01 -16.9 1.5 76 -20.2 -4.3 0
05:20 1017 30.03 847 25.01 -16.9 1.6 76 -20.2 -4.3 0
05:21 1017 30.03 846 24.98 -16.9 1.7 76 -20.2 -4.3 0
05:22 1017 30.03 846 24.98 -16.8 1.7 76 -20.2 -4.3 0
05:23 1017 30.03 846 24.98 -16.8 1.7 76 -20.2 -4.3 0
05:24 1017 30.03 847 25.01 -16.8 1.7 75 -20.2 -4.4 0
05:25 1017 30.03 847 25.01 -16.8 1.7 76 -20.2 -4.3 0
05:26 1017 30.03 846 24.98 -16.8 1.8 75 -20.2 -4.3 0
05:27 1017 30.03 847 25.01 -16.8 1.8 75 -20.2 -4.4 0
05:28 1017 30.03 846 24.98 -16.7 1.9 75 -20.2 -4.4 0
05:29 1017 30.03 846 24.98 -16.7 2 75 -20.2 -4.4 0
05:30 1017 30.03 846 24.98 -16.7 1.9 74 -20.3 -4.5 0
05:31 1017 30.03 846 24.98 -16.7 1.9 74 -20.3 -4.5 0
05:32 1017 30.03 846 24.98 -16.7 2 73 -20.4 -4.7 0
05:33 1017 30.03 846 24.98 -16.7 1.9 73 -20.5 -4.9 0
05:34 1017 30.03 846 24.98 -16.7 1.9 73 -20.5 -4.9 0
05:35 1017 30.03 846 24.98 -16.7 2 72 -20.6 -5 0
05:36 1017 30.03 846 24.98 -16.7 1.9 72 -20.7 -5.2 0
05:37 1017 30.03 846 24.98 -16.8 1.8 71 -20.8 -5.5 0
05:38 1017 30.03 846 24.98 -16.8 1.7 71 -21 -5.8 0
05:39 1017 30.03 846 24.98 -16.9 1.6 71 -21 -5.8 0
05:40 1017 30.03 846 24.98 -16.9 1.6 71 -21.1 -5.9 0
05:41 1017 30.03 846 24.98 -16.7 1.9 69 -21.2 -6.1 0
05:42 1017 30.03 846 24.98 -16.6 2.1 68 -21.2 -6.1 0
05:43 1017 30.03 846 24.98 -16.6 2.1 68 -21.3 -6.3 0
05:44 1017 30.03 846 24.98 -16.7 2 68 -21.3 -6.4 0
05:45 1017 30.03 846 24.98 -16.8 1.7 68 -21.4 -6.6 0
05:46 1017 30.03 846 24.98 -17 1.5 68 -21.5 -6.8 0
05:47 1017 30.03 846 24.98 -17.1 1.3 69 -21.5 -6.7 0
05:48 1017 30.03 846 24.98 -17.2 1 70 -21.5 -6.7 0
05:49 1017 30.03 846 24.98 -17.3 0.9 69 -21.6 -6.9 0
05:50 1017 30.03 846 24.98 -17.4 0.7 70 -21.7 -7 0
05:51 1017 30.03 846 24.98 -17.4 0.6 70 -21.7 -7 0
05:52 1017 30.03 846 24.98 -17.5 0.6 71 -21.5 -6.7 0
05:53 1017 30.03 846 24.98 -17.4 0.7 70 -21.6 -6.9 0
05:54 1017 30.03 846 24.98 -17.6 0.4 70 -21.7 -7.1 0
05:55 1017 30.03 846 24.98 -17.7 0.2 70 -21.9 -7.3 0
05:56 1017 30.03 846 24.98 -17.9 -0.1 71 -21.9 -7.4 0
05:57 1017 30.03 846 24.98 -18 -0.5 72 -21.9 -7.4 0
05:58 1017 30.03 846 24.98 -18.1 -0.6 73 -21.8 -7.3 0
05:59 1017 30.03 846 24.98 -18.1 -0.6 73 -21.8 -7.2 0
06:00 1017 30.03 846 24.98 -18.1 -0.6 73 -21.8 -7.3 0
06:01 1017 30.03 846 24.98 -18.2 -0.7 73 -21.9 -7.4 0
06:02 1017 30.03 846 24.98 -18.2 -0.7 73 -21.8 -7.3 0
06:03 1017 30.03 846 24.98 -18.2 -0.7 74 -21.8 -7.2 0
06:04 1017 30.03 846 24.98 -18.1 -0.6 74 -21.7 -7.1 0
06:05 1017 30.03 846 24.98 -18 -0.3 74 -21.6 -6.9 0
06:06 1017 30.03 846 24.98 -17.9 -0.2 74 -21.5 -6.8 0
06:07 1017 30.03 846 24.98 -17.8 -0 73 -21.5 -6.7 0
06:08 1017 30.03 846 24.98 -17.7 0.2 73 -21.4 -6.5 0
06:09 1017 30.03 846 24.98 -17.7 0.2 73 -21.4 -6.5 0
06:10 1017 30.03 846 24.98 -17.6 0.2 73 -21.4 -6.5 0
06:11 1017 30.03 846 24.98 -17.5 0.4 73 -21.4 -6.4 0
06:12 1017 30.03 846 24.98 -17.3 0.8 72 -21.3 -6.3 0
06:13 1017 30.03 846 24.98 -17.3 0.8 72 -21.3 -6.3 0
06:14 1017 30.03 846 24.98 -17.4 0.7 72 -21.2 -6.2 0
06:15 1017 30.03 846 24.98 -17.4 0.7 73 -21.2 -6.2 0
06:16 1017 30.03 846 24.98 -17.4 0.7 73 -21.2 -6.1 0
06:17 1017 30.03 846 24.98 -17.4 0.7 73 -21.2 -6.1 0
06:18 1017 30.03 846 24.98 -17.3 0.9 73 -21.1 -6 0
06:19 1017 30.03 846 24.98 -17.2 1.1 72 -21 -5.9 0
06:20 1017 30.03 846 24.98 -17.1 1.3 72 -21 -5.8 0
06:21 1017 30.03 846 24.98 -17 1.5 72 -21 -5.7 0
06:22 1017 30.03 846 24.98 -16.9 1.6 71 -21.1 -5.9 0
06:23 1017 30.03 846 24.98 -16.8 1.8 70 -21 -5.8 0
06:24 1017 30.03 846 24.98 -16.6 2 70 -21 -5.8 0
06:25 1017 30.03 846 24.98 -16.5 2.3 69 -20.9 -5.6 0
06:26 1017 30.03 846 24.98 -16.4 2.4 69 -20.8 -5.5 0
06:27 1017 30.03 846 24.98 -16.4 2.5 69 -20.8 -5.4 0
06:28 1017 30.03 846 24.98 -16.4 2.5 69 -20.7 -5.3 0
06:29 1017 30.03 846 24.98 -16.4 2.6 70 -20.7 -5.2 0
06:30 1017 30.03 846 24.98 -16.4 2.6 69 -20.7 -5.3 0
06:31 1017 30.03 846 24.98 -16.3 2.7 69 -20.7 -5.2 0
06:32 1017 30.03 846 24.98 -16.2 2.8 69 -20.7 -5.2 0
06:33 1017 30.03 846 24.98 -16.2 2.9 68 -20.8 -5.4 0
06:34 1017 30.03 846 24.98 -16.1 3.1 68 -20.8 -5.4 0
06:35 1017 30.03 846 24.98 -16 3.3 68 -20.6 -5.1 0
06:36 1017 30.03 846 24.98 -15.9 3.3 67 -20.7 -5.2 0
06:37 1017 30.03 846 24.98 -15.9 3.5 67 -20.7 -5.2 0
06:38 1017 30.03 846 24.98 -15.8 3.6 67 -20.6 -5.1 0
06:39 1017 30.03 846 24.98 -15.8 3.5 67 -20.6 -5 0
06:40 1017 30.03 846 24.98 -15.8 3.6 68 -20.5 -4.9 0
06:41 1017 30.03 846 24.98 -15.8 3.6 67 -20.5 -5 0
06:42 1017 30.03 846 24.98 -15.7 3.7 67 -20.5 -4.9 0
06:43 1017 30.03 846 24.98 -15.6 3.9 67 -20.4 -4.8 0
06:44 1017 30.03 846 24.98 -15.6 4 67 -20.4 -4.8 0
06:45 1017 30.03 846 24.98 -15.5 4.1 67 -20.3 -4.6 0
06:46 1017 30.03 846 24.98 -15.5 4.2 66 -20.5 -4.8 0
06:47 1017 30.03 846 24.98 -15.4 4.3 66 -20.3 -4.5 0
06:48 1017 30.03 846 24.98 -15.4 4.3 66 -20.3 -4.6 0
06:49 1017 30.03 846 24.98 -15.4 4.4 66 -20.3 -4.5 0
06:50 1017 30.03 846 24.98 -15.4 4.3 66 -20.4 -4.7 0
06:51 1017 30.03 846 24.98 -15.4 4.3 66 -20.4 -4.7 0
06:52 1017 30.03 846 24.98 -15.3 4.5 65 -20.4 -4.7 0
06:53 1017 30.03 846 24.98 -15.2 4.6 65 -20.4 -4.7 0
06:54 1017 30.03 846 24.98 -15.3 4.6 65 -20.4 -4.7 0
06:55 1017 30.03 846 24.98 -15.2 4.6 65 -20.4 -4.7 0
06:56 1017 30.03 846 24.98 -15.2 4.6 65 -20.4 -4.7 0
06:57 1017 30.03 846 24.98 -15.3 4.6 65 -20.4 -4.7 0
06:58 1017 30.03 846 24.98 -15.3 4.6 65 -20.5 -4.9 0
06:59 1017 30.03 846 24.98 -15.2 4.6 64 -20.5 -5 0
07:00 1017 30.03 846 24.98 -15.2 4.7 64 -20.6 -5 0
07:01 1017 30.03 846 24.98 -15.2 4.6 64 -20.6 -5.1 0
07:02 1017 30.03 846 24.98 -15.2 4.6 64 -20.6 -5 0
07:03 1017 30.03 846 24.98 -15.3 4.4 64 -20.6 -5.2 0
07:04 1017 30.03 846 24.98 -15.4 4.2 64 -20.7 -5.3 0
07:05 1017 30.03 846 24.98 -15.4 4.3 64 -20.7 -5.2 0
07:06 1017 30.03 846 24.98 -15.5 4.1 65 -20.7 -5.3 0
07:07 1017 30.03 846 24.98 -15.6 3.9 65 -20.8 -5.5 0
07:08 1017 30.03 846 24.98 -15.8 3.7 66 -20.8 -5.4 0
07:09 1017 30.03 846 24.98 -15.9 3.4 66 -20.9 -5.6 0
07:10 1017 30.03 846 24.98 -16.1 3.1 67 -20.9 -5.7 0
07:11 1017 30.03 846 24.98 -16.2 2.9 67 -21 -5.8 0
07:12 1017 30.03 846 24.98 -16.2 2.8 67 -21.1 -5.9 0
07:13 1017 30.03 846 24.98 -16.3 2.7 67 -21.1 -6 0
07:14 1017 30.03 846 24.98 -16.3 2.8 67 -21.1 -6 0
07:15 1017 30.03 846 24.98 -16.4 2.5 67 -21.2 -6.2 0
07:16 1017 30.03 847 25.01 -16.5 2.3 68 -21.1 -6.1 0
07:17 1017 30.03 847 25.01 -16.4 2.5 68 -21.1 -5.9 0
07:18 1017 30.03 847 25.01 -16.3 2.7 66 -21.3 -6.4 0
07:19 1017 30.03 847 25.01 -16.4 2.5 66 -21.4 -6.4 0
07:20 1017 30.03 847 25.01 -16.5 2.3 66 -21.4 -6.6 0
07:21 1017 30.03 847 25.01 -16.6 2.2 67 -21.4 -6.6 0
07:22 1017 30.03 847 25.01 -16.6 2 68 -21.2 -6.2 0
07:23 1017 30.03 847 25.01 -16.6 2.1 67 -21.4 -6.5 0
07:24 1017 30.03 847 25.01 -16.5 2.2 66 -21.4 -6.5 0
07:25 1017 30.03 847 25.01 -16.5 2.2 64 -21.8 -7.2 0
07:26 1017 30.03 847 25.01 -16.7 1.9 66 -21.6 -6.9 0
07:27 1017 30.03 847 25.01 -16.9 1.7 66 -21.8 -7.2 0
07:28 1017 30.03 847 25.01 -17 1.4 67 -21.8 -7.3 0
07:29 1017 30.03 847 25.01 -17.1 1.3 68 -21.7 -7.1 0
07:30 1017 30.03 846 24.98 -17 1.5 69 -21.5 -6.6 0
07:31 1017 30.03 846 24.98 -16.7 1.9 69 -21.1 -5.9 0
07:32 1017 30.03 846 24.98 -16.3 2.6 69 -20.8 -5.4 0
07:33 1017 30.03 846 24.98 -15.9 3.5 67 -20.6 -5.1 0
07:34 1017 30.03 846 24.98 -15.5 4.1 63 -21 -5.8 0
07:35 1017 30.03 846 24.98 -15.4 4.3 65 -20.6 -5.2 0
07:36 1017 30.03 846 24.98 -15.1 4.8 64 -20.4 -4.8 0
07:37 1017 30.03 846 24.98 -15 5.1 63 -20.4 -4.8 0
07:38 1017 30.03 847 25.01 -14.8 5.4 62 -20.5 -4.8 0
07:39 1017 30.03 846 24.98 -14.6 5.7 62 -20.4 -4.7 0
07:40 1017 30.03 847 25.01 -14.4 6.1 61 -20.3 -4.5 0
07:41 1017 30.03 847 25.01 -14.3 6.3 60 -20.4 -4.7 0
07:42 1017 30.03 847 25.01 -14.3 6.3 59 -20.6 -5.1 0
07:43 1017 30.03 847 25.01 -14.4 6.2 60 -20.5 -4.9 0
07:44 1017 30.03 847 25.01 -14.3 6.2 61 -20.4 -4.6 0
07:45 1017 30.03 847 25.01 -14.3 6.3 60 -20.5 -4.8 0
07:46 1017 30.03 847 25.01 -14.3 6.2 60 -20.4 -4.7 0
07:47 1017 30.03 847 25.01 -14.4 6.2 59 -20.6 -5.1 0
07:48 1017 30.03 847 25.01 -14.5 5.8 59 -20.9 -5.7 0
07:49 1017 30.03 847 25.01 -14.9 5.1 59 -21.3 -6.3 0
07:50 1017 30.03 847 25.01 -15.4 4.2 61 -21.4 -6.6 0
07:51 1017 30.03 847 25.01 -15.9 3.3 63 -21.5 -6.6 0
07:52 1017 30.03 847 25.01 -16.2 2.9 66 -21.1 -5.9 0
07:53 1018 30.06 847 25.01 -16.1 3.1 66 -20.9 -5.7 0
07:54 1017 30.03 847 25.01 -15.8 3.5 64 -21.1 -6 0
07:55 1017 30.03 846 24.98 -15.9 3.3 64 -21.2 -6.2 0
07:56 1017 30.03 847 25.01 -16.1 2.9 66 -21.1 -6 0
07:57 1018 30.06 847 25.01 -16.2 2.9 66 -21.1 -6 0
07:58 1018 30.06 847 25.01 -16.2 2.8 66 -21.1 -6 0
07:59 1017 30.03 847 25.01 -16.1 2.9 67 -20.9 -5.6 0
08:00 1017 30.03 846 24.98 -15.9 3.3 66 -21 -5.8 0
08:01 1017 30.03 847 25.01 -16 3.2 66 -21 -5.7 0
08:02 1018 30.06 847 25.01 -16 3.2 66 -21 -5.9 0
08:03 1018 30.06 847 25.01 -16.1 3 66 -21.2 -6.1 0
08:04 1018 30.06 847 25.01 -16.3 2.7 66 -21.2 -6.2 0
08:05 1018 30.06 847 25.01 -16.4 2.4 67 -21.2 -6.1 0
08:06 1018 30.06 847 25.01 -16.4 2.5 68 -21.1 -5.9 0
08:07 1018 30.06 847 25.01 -16.4 2.4 68 -21 -5.8 0
08:08 1018 30.06 847 25.01 -16.4 2.6 69 -20.7 -5.3 0
08:09 1017 30.03 847 25.01 -16 3.2 67 -20.8 -5.4 0
08:10 1018 30.06 847 25.01 -15.8 3.6 66 -20.7 -5.2 0
08:11 1018 30.06 847 25.01 -15.7 3.8 65 -20.8 -5.4 0
08:12 1018 30.06 847 25.01 -15.8 3.6 66 -20.8 -5.5 0
08:13 1018 30.06 847 25.01 -15.8 3.6 66 -20.7 -5.3 0
08:14 1018 30.06 847 25.01 -15.8 3.5 65 -21 -5.7 0
08:15 1017 30.03 847 25.01 -16.1 3.1 66 -21.1 -5.9 0
08:16 1017 30.03 847 25.01 -16.2 2.8 67 -21.1 -6 0
08:17 1017 30.03 847 25.01 -16.4 2.5 67 -21.2 -6.1 0
08:18 1017 30.03 847 25.01 -16.5 2.3 68 -21.1 -6 0
08:19 1017 30.03 847 25.01 -16.6 2.2 68 -21.1 -6 0
08:20 1017 30.03 847 25.01 -16.5 2.2 68 -21.1 -6 0
08:21 1017 30.03 847 25.01 -16.5 2.3 68 -21.1 -6 0
08:22 1018 30.06 847 25.01 -16.6 2.1 68 -21.2 -6.1 0
08:23 1017 30.03 847 25.01 -16.7 2 69 -21.2 -6.1 0
08:24 1017 30.03 847 25.01 -16.8 1.8 69 -21.1 -6.1 0
08:25 1018 30.06 847 25.01 -16.7 1.9 70 -21 -5.8 0
08:26 1018 30.06 847 25.01 -16.7 2 70 -21 -5.7 0
08:27 1018 30.06 847 25.01 -16.6 2.1 70 -20.9 -5.6 0
08:28 1018 30.06 847 25.01 -16.5 2.3 70 -20.8 -5.4 0
08:29 1018 30.06 847 25.01 -16.4 2.5 70 -20.7 -5.2 0
08:30 1018 30.06 847 25.01 -16.3 2.6 70 -20.7 -5.2 0
08:31 1018 30.06 847 25.01 -16.3 2.7 70 -20.6 -5.1 0
08:32 1017 30.03 847 25.01 -16.3 2.6 70 -20.5 -5 0
08:33 1017 30.03 847 25.01 -16.3 2.7 70 -20.5 -4.9 0
08:34 1017 30.03 847 25.01 -16.3 2.6 71 -20.5 -4.9 0
08:35 1017 30.03 847 25.01 -16.4 2.5 71 -20.4 -4.7 0
08:36 1018 30.06 847 25.01 -16.2 2.8 71 -20.3 -4.6 0
08:37 1018 30.06 847 25.01 -16.1 3.1 70 -20.3 -4.5 0
08:38 1018 30.06 847 25.01 -16 3.2 71 -20.2 -4.3 0
08:39 1018 30.06 847 25.01 -16 3.2 71 -20.2 -4.3 0
08:40 1017 30.03 847 25.01 -16 3.1 71 -20.1 -4.3 0
08:41 1018 30.06 847 25.01 -16 3.2 71 -20.1 -4.1 0
08:42 1018 30.06 847 25.01 -15.9 3.5 71 -20 -4.1 0
08:43 1018 30.06 847 25.01 -15.7 3.8 70 -19.9 -3.8 0
08:44 1017 30.03 847 25.01 -15.4 4.3 69 -19.8 -3.6 0
08:45 1017 30.03 847 25.01 -15.3 4.5 69 -19.7 -3.5 0
08:46 1017 30.03 847 25.01 -15.3 4.6 69 -19.7 -3.5 0
08:47 1017 30.03 847 25.01 -15.2 4.6 69 -19.6 -3.3 0
08:48 1017 30.03 847 25.01 -15.1 4.8 69 -19.6 -3.2 0
08:49 1017 30.03 847 25.01 -15 5 69 -19.5 -3.1 0
08:50 1017 30.03 847 25.01 -14.9 5.2 68 -19.5 -3.1 0
08:51 1017 30.03 847 25.01 -14.8 5.3 68 -19.5 -3.1 0
08:52 1018 30.06 847 25.01 -14.8 5.4 68 -19.4 -3 0
08:53 1018 30.06 847 25.01 -14.7 5.6 68 -19.4 -2.9 0
08:54 1018 30.06 847 25.01 -14.5 6 67 -19.3 -2.8 0
08:55 1018 30.06 847 25.01 -14.2 6.4 66 -19.2 -2.6 0
08:56 1018 30.06 847 25.01 -14.3 6.2 67 -19.1 -2.5 0
08:57 1018 30.06 847 25.01 -14.5 5.9 68 -19.1 -2.4 0
08:58 1018 30.06 847 25.01 -14.5 5.9 68 -19.1 -2.5 0
08:59 1018 30.06 847 25.01 -14.4 6.2 68 -19 -2.2 0
09:00 1018 30.06 847 25.01 -14.2 6.4 67 -19 -2.2 0
09:01 1018 30.06 847 25.01 -14.1 6.6 67 -18.9 -2.1 0
09:02 1018 30.06 847 25.01 -14.1 6.6 67 -18.9 -2 0
09:03 1018 30.06 847 25.01 -14.2 6.4 68 -18.9 -2 0
09:04 1018 30.06 847 25.01 -14.3 6.3 69 -18.8 -1.9 0
09:05 1018 30.06 847 25.01 -14.3 6.3 69 -18.9 -1.9 0
09:06 1018 30.06 847 25.01 -14.4 6.1 69 -18.9 -1.9 0
09:07 1018 30.06 847 25.01 -14.4 6.1 70 -18.8 -1.9 0
09:08 1018 30.06 847 25.01 -14.4 6.1 69 -18.9 -1.9 0
09:09 1018 30.06 847 25.01 -14.3 6.2 69 -18.8 -1.8 0
09:10 1018 30.06 847 25.01 -14.3 6.4 70 -18.6 -1.6 0
09:11 1018 30.06 847 25.01 -14.2 6.4 70 -18.6 -1.5 0
09:12 1018 30.06 847 25.01 -14.1 6.6 70 -18.5 -1.3 0
09:13 1018 30.06 847 25.01 -14 6.7 70 -18.4 -1.1 0
09:14 1018 30.06 847 25.01 -14 6.9 70 -18.3 -1 0
09:15 1018 30.06 847 25.01 -13.8 7.1 70 -18.2 -0.8 0
09:16 1018 30.06 847 25.01 -13.6 7.5 68 -18.3 -0.9 0
09:17 1018 30.06 847 25.01 -13.5 7.7 67 -18.3 -0.9 0
09:18 1018 30.06 847 25.01 -13.3 8 67 -18.2 -0.7 0
09:19 1018 30.06 847 25.01 -13.2 8.2 67 -18.1 -0.5 0
09:20 1018 30.06 847 25.01 -13.2 8.3 67 -18 -0.4 0
09:21 1018 30.06 847 25.01 -13.1 8.5 67 -17.9 -0.3 0
09:22 1018 30.06 847 25.01 -13 8.6 67 -18 -0.4 0
09:23 1018 30.06 847 25.01 -12.9 8.7 67 -17.9 -0.2 0
09:24 1018 30.06 847 25.01 -12.9 8.8 67 -17.9 -0.2 0
09:25 1018 30.06 847 25.01 -12.8 8.9 67 -17.8 -0 0
09:26 1018 30.06 847 25.01 -12.8 9.1 67 -17.7 0.1 0
09:27 1018 30.06 847 25.01 -12.7 9.2 67 -17.6 0.3 0
09:28 1018 30.06 847 25.01 -12.7 9.2 67 -17.5 0.5 0
09:29 1018 30.06 847 25.01 -12.6 9.4 67 -17.4 0.6 0
09:30 1018 30.06 847 25.01 -12.6 9.3 67 -17.6 0.3 0
09:31 1018 30.06 847 25.01 -12.6 9.2 67 -17.5 0.5 0
09:32 1018 30.06 847 25.01 -12.7 9.2 68 -17.4 0.7 0
09:33 1018 30.06 847 25.01 -12.7 9.1 68 -17.4 0.6 0
09:34 1018 30.06 847 25.01 -12.7 9.2 68 -17.4 0.7 0
09:35 1018 30.06 847 25.01 -12.6 9.3 68 -17.3 0.8 0
09:36 1018 30.06 847 25.01 -12.6 9.3 69 -17.2 1 0
09:37 1018 30.06 847 25.01 -12.6 9.3 69 -17.2 1 0
09:38 1017 30.03 847 25.01 -12.7 9.2 69 -17.3 0.9 0
09:39 1017 30.03 847 25.01 -12.6 9.3 69 -17.2 1.1 0
09:40 1018 30.06 847 25.01 -12.6 9.4 69 -17.2 1 0
09:41 1018 30.06 847 25.01 -12.5 9.5 67 -17.3 0.8 0
09:42 1018 30.06 847 25.01 -12.4 9.7 67 -17.3 0.9 0
09:43 1018 30.06 847 25.01 -12.3 9.8 67 -17.2 1 0
09:44 1018 30.06 847 25.01 -12.2 10 67 -17.1 1.3 0
09:45 1018 30.06 847 25.01 -12.2 10 67 -17.2 1.1 0
09:46 1018 30.06 847 25.01 -12.2 10 67 -17.1 1.2 0
09:47 1018 30.06 847 25.01 -12.2 10.1 68 -17 1.4 0
09:48 1018 30.06 847 25.01 -12.1 10.2 68 -16.9 1.5 0
09:49 1018 30.06 847 25.01 -12 10.4 67 -17 1.4 0
09:50 1018 30.06 847 25.01 -12 10.4 66 -17 1.3 0
09:51 1018 30.06 847 25.01 -12 10.4 66 -17.1 1.2 0
09:52 1018 30.06 847 25.01 -11.9 10.5 66 -17.1 1.2 0
09:53 1018 30.06 847 25.01 -11.9 10.6 66 -17 1.5 0
09:54 1018 30.06 847 25.01 -11.7 10.9 65 -17 1.4 0
09:55 1018 30.06 847 25.01 -11.7 11 64 -17.2 1 0
09:56 1018 30.06 847 25.01 -11.6 11.1 65 -17 1.4 0
09:57 1018 30.06 847 25.01 -11.6 11 66 -16.8 1.7 0
09:58 1018 30.06 847 25.01 -11.7 11 67 -16.7 1.9 0
09:59 1018 30.06 847 25.01 -11.7 11 66 -16.8 1.8 0
10:00 1018 30.06 847 25.01 -11.6 11.1 66 -16.8 1.7 0
10:01 1018 30.06 847 25.01 -11.6 11.2 64 -17 1.4 0
10:02 1018 30.06 847 25.01 -11.5 11.4 64 -17 1.5 0
10:03 1018 30.06 847 25.01 -11.4 11.5 64 -16.8 1.7 0
10:04 1018 30.06 847 25.01 -11.3 11.6 65 -16.6 2 0
10:05 1018 30.06 847 25.01 -11.3 11.7 65 -16.7 2 0
10:06 1018 30.06 847 25.01 -11.2 11.8 65 -16.6 2.1 0
10:07 1018 30.06 847 25.01 -11.2 11.9 64 -16.8 1.8 0
10:08 1018 30.06 847 25.01 -11 12.1 63 -16.8 1.8 0
10:09 1018 30.06 847 25.01 -10.9 12.4 62 -16.9 1.6 0
10:10 1018 30.06 847 25.01 -10.8 12.6 62 -16.7 1.9 0
10:11 1018 30.06 847 25.01 -10.7 12.8 62 -16.7 2 0
10:12 1018 30.06 847 25.01 -10.7 12.7 61 -16.8 1.8 0
10:13 1018 30.06 847 25.01 -10.7 12.7 62 -16.7 2 0
10:14 1018 30.06 847 25.01 -10.7 12.7 62 -16.6 2 0
10:15 1018 30.06 847 25.01 -10.8 12.6 62 -16.7 2 0
10:16 1018 30.06 847 25.01 -10.8 12.6 62 -16.8 1.8 0
10:17 1018 30.06 847 25.01 -10.7 12.7 61 -16.8 1.7 0
10:18 1018 30.06 847 25.01 -10.6 12.9 60 -16.9 1.6 0
10:19 1018 30.06 847 25.01 -10.5 13 61 -16.7 1.9 0
10:20 1018 30.06 847 25.01 -10.4 13.3 61 -16.5 2.3 0
10:21 1018 30.06 847 25.01 -10.3 13.4 60 -16.7 2 0
10:22 1018 30.06 847 25.01 -10.2 13.7 60 -16.5 2.3 0
10:23 1018 30.06 847 25.01 -10 14 58 -16.7 1.9 0
10:24 1018 30.06 847 25.01 -9.8 14.4 57 -16.8 1.8 0
10:25 1018 30.06 847 25.01 -9.7 14.5 57 -16.7 2 0
10:26 1018 30.06 847 25.01 -9.7 14.5 57 -16.7 2 0
10:27 1018 30.06 847 25.01 -9.7 14.6 55 -17 1.4 0
10:28 1018 30.06 847 25.01 -9.5 14.9 56 -16.8 1.7 0
10:29 1018 30.06 847 25.01 -9.4 15 55 -17 1.5 0
10:30 1018 30.06 847 25.01 -9.5 14.9 55 -16.9 1.7 0
10:31 1018 30.06 847 25.01 -9.6 14.8 56 -16.7 1.9 0
10:32 1018 30.06 847 25.01 -9.7 14.6 57 -16.8 1.8 0
10:33 1018 30.06 847 25.01 -9.7 14.6 56 -16.9 1.6 0
10:34 1018 30.06 847 25.01 -9.6 14.6 56 -16.9 1.6 0
10:35 1018 30.06 847 25.01 -9.7 14.6 56 -16.9 1.6 0
10:36 1018 30.06 847 25.01 -9.7 14.6 55 -17.1 1.3 0
10:37 1018 30.06 847 25.01 -9.6 14.6 57 -16.7 2 0
10:38 1018 30.06 847 25.01 -9.8 14.4 55 -17.2 1 0
10:39 1018 30.06 847 25.01 -9.8 14.3 56 -17.1 1.2 0
10:40 1018 30.06 847 25.01 -9.8 14.4 56 -17.1 1.2 0
10:41 1018 30.06 847 25.01 -9.7 14.6 54 -17.3 0.9 0
10:42 1018 30.06 847 25.01 -9.5 14.8 54 -17.2 1 0
10:43 1018 30.06 847 25.01 -9.4 15.1 55 -17 1.5 0
10:44 1018 30.06 847 25.01 -9.2 15.4 55 -16.8 1.8 0
10:45 1018 30.06 847 25.01 -9 15.7 54 -16.8 1.7 0
10:46 1018 30.06 847 25.01 -8.9 15.9 53 -16.9 1.6 0
10:47 1018 30.06 847 25.01 -8.7 16.3 52 -16.9 1.6 0
10:48 1018 30.06 847 25.01 -8.6 16.6 53 -16.5 2.2 0
10:49 1018 30.06 847 25.01 -8.5 16.8 53 -16.4 2.5 0
10:50 1018 30.06 847 25.01 -8.3 17.1 51 -16.8 1.7 0
10:51 1018 30.06 847 25.01 -8.2 17.2 51 -16.6 2.1 0
10:52 1018 30.06 847 25.01 -8.1 17.3 50 -16.8 1.8 0
10:53 1018 30.06 847 25.01 -8 17.6 51 -16.5 2.3 0
10:54 1018 30.06 847 25.01 -7.8 18 49 -16.7 2 0
10:55 1018 30.06 847 25.01 -7.6 18.3 48 -16.9 1.6 0
10:56 1018 30.06 847 25.01 -7.5 18.5 46 -17.2 1.1 0
10:57 1018 30.06 847 25.01 -7.5 18.5 46 -17.3 0.8 0
10:58 1018 30.06 847 25.01 -7.5 18.4 46 -17.2 1.1 0
10:59 1018 30.06 847 25.01 -7.5 18.5 47 -17.1 1.2 0
11:00 1018 30.06 847 25.01 -7.5 18.5 47 -17.1 1.3 0
11:01 1018 30.06 847 25.01 -7.5 18.5 46 -17.1 1.1 0
11:02 1018 30.06 847 25.01 -7.6 18.3 47 -17.2 1.1 0
11:03 1018 30.06 847 25.01 -7.6 18.3 47 -17.2 1 0
11:04 1018 30.06 847 25.01 -7.6 18.3 48 -17 1.5 0
11:05 1018 30.06 847 25.01 -7.7 18.2 48 -17 1.5 0
11:06 1018 30.06 847 25.01 -7.7 18.1 49 -16.7 1.9 0
11:07 1018 30.06 847 25.01 -7.7 18.1 48 -16.8 1.7 0
11:08 1018 30.06 847 25.01 -7.7 18.2 48 -16.9 1.6 0
11:09 1018 30.06 847 25.01 -7.7 18.2 48 -16.8 1.8 0
11:10 1018 30.06 847 25.01 -7.6 18.2 48 -16.9 1.5 0
11:11 1018 30.06 847 25.01 -7.7 18.2 49 -16.5 2.2 0
11:12 1018 30.06 847 25.01 -7.6 18.3 48 -16.7 1.9 0
11:13 1018 30.06 847 25.01 -7.7 18.2 47 -17.1 1.3 0
11:14 1018 30.06 847 25.01 -7.8 17.9 49 -16.7 2 0
11:15 1018 30.06 847 25.01 -7.9 17.8 49 -16.9 1.7 0
11:16 1018 30.06 847 25.01 -8 17.7 47 -17.3 0.9 0
11:17 1018 30.06 847 25.01 -8.1 17.3 49 -17.1 1.1 0
11:18 1018 30.06 847 25.01 -8.3 17 50 -17 1.4 0
11:19 1018 30.06 847 25.01 -8.4 16.9 52 -16.6 2.2 0
11:20 1018 30.06 847 25.01 -8.5 16.8 52 -16.7 1.9 0
11:21 1018 30.06 847 25.01 -8.5 16.7 52 -16.8 1.8 0
11:22 1018 30.06 847 25.01 -8.5 16.6 49 -17.5 0.4 0
11:23 1018 30.06 847 25.01 -8.6 16.5 48 -17.7 0.1 0
11:24 1018 30.06 847 25.01 -8.7 16.3 49 -17.7 0.1 0
11:25 1018 30.06 847 25.01 -8.8 16.2 50 -17.4 0.8 0
11:26 1018 30.06 847 25.01 -8.7 16.3 50 -17.3 0.9 0
11:27 1018 30.06 847 25.01 -8.7 16.3 53 -16.7 1.9 0
11:28 1018 30.06 847 25.01 -8.7 16.4 52 -16.8 1.7 0
11:29 1018 30.06 847 25.01 -8.7 16.3 49 -17.7 0.2 0
11:30 1018 30.06 847 25.01 -8.8 16.2 50 -17.6 0.4 0
11:31 1018 30.06 848 25.04 -8.8 16.2 51 -17.2 1 0
11:32 1018 30.06 848 25.04 -8.8 16.1 51 -17.3 0.9 0
11:33 1018 30.06 848 25.04 -8.8 16.1 49 -17.7 0.1 0
11:34 1018 30.06 848 25.04 -8.8 16.2 51 -17.2 1 0
11:35 1018 30.06 848 25.04 -8.8 16.1 50 -17.4 0.6 0
11:36 1018 30.06 847 25.01 -8.8 16.3 54 -16.6 2.2 0
11:37 1018 30.06 847 25.01 -8.7 16.3 51 -17.1 1.3 0
11:38 1018 30.06 847 25.01 -8.8 16.3 52 -17 1.5 0
11:39 1018 30.06 847 25.01 -8.8 16.2 49 -17.6 0.3 0
11:40 1018 30.06 847 25.01 -8.8 16.3 50 -17.4 0.7 0
11:41 1018 30.06 847 25.01 -8.7 16.3 50 -17.4 0.7 0
11:42 1018 30.06 847 25.01 -8.5 16.7 49 -17.3 0.8 0
11:43 1018 30.06 847 25.01 -8.5 16.7 49 -17.3 0.8 0
11:44 1018 30.06 847 25.01 -8.4 16.8 50 -17.1 1.1 0
11:45 1018 30.06 847 25.01 -8.4 16.9 52 -16.7 2 0
11:46 1018 30.06 847 25.01 -8.3 17 51 -16.9 1.6 0
11:47 1018 30.06 847 25.01 -8.3 17.1 52 -16.5 2.3 0
11:48 1018 30.06 847 25.01 -8.2 17.2 50 -16.9 1.6 0
11:49 1018 30.06 847 25.01 -8.2 17.2 49 -17 1.4 0
11:50 1018 30.06 847 25.01 -8.2 17.3 49 -17.1 1.2 0
11:51 1018 30.06 847 25.01 -8.2 17.2 48 -17.5 0.6 0
11:52 1018 30.06 847 25.01 -8.1 17.3 49 -17.2 1.1 0
11:53 1018 30.06 847 25.01 -8.1 17.4 49 -17.1 1.2 0
11:54 1018 30.06 847 25.01 -8.2 17.2 50 -16.8 1.8 0
11:55 1018 30.06 847 25.01 -8.2 17.2 50 -16.9 1.6 0
11:56 1018 30.06 847 25.01 -8.1 17.4 49 -17.1 1.3 0
11:57 1018 30.06 847 25.01 -8 17.7 50 -16.7 1.9 0
11:58 1018 30.06 847 25.01 -7.9 17.8 48 -17 1.4 0
11:59 1018 30.06 847 25.01 -7.8 17.9 49 -16.9 1.6 0
12:00 1018 30.06 847 25.01 -7.8 18 49 -16.8 1.8 0
12:01 1018 30.06 847 25.01 -7.6 18.3 48 -16.8 1.7 0
12:02 1018 30.06 847 25.01 -7.5 18.5 47 -17.1 1.2 0
12:03 1018 30.06 847 25.01 -7.6 18.4 48 -16.7 1.9 0
12:04 1018 30.06 847 25.01 -7.7 18.2 47 -17.1 1.3 0
12:05 1018 30.06 847 25.01 -7.9 17.9 47 -17.3 0.8 0
12:06 1018 30.06 847 25.01 -7.7 18.1 47 -17.1 1.1 0
12:07 1018 30.06 847 25.01 -7.5 18.6 46 -17.1 1.2 0
12:08 1018 30.06 847 25.01 -7.3 18.9 47 -16.7 2 0
12:09 1018 30.06 847 25.01 -7.1 19.3 47 -16.5 2.3 0
12:10 1018 30.06 847 25.01 -6.9 19.6 46 -16.8 1.8 0
12:11 1018 30.06 847 25.01 -6.8 19.8 46 -16.6 2.1 0
12:12 1018 30.06 847 25.01 -6.8 19.7 47 -16.4 2.5 0
12:13 1018 30.06 847 25.01 -7 19.4 47 -16.6 2.1 0
12:14 1018 30.06 847 25.01 -7 19.4 46 -16.9 1.7 0
12:15 1018 30.06 847 25.01 -7.1 19.3 47 -16.7 2 0
12:16 1018 30.06 847 25.01 -7.1 19.1 46 -16.8 1.8 0
12:17 1018 30.06 847 25.01 -7.3 18.9 48 -16.6 2.1 0
12:18 1018 30.06 847 25.01 -7.5 18.5 49 -16.4 2.4 0
12:19 1018 30.06 847 25.01 -7.6 18.4 49 -16.6 2.2 0
12:20 1018 30.06 847 25.01 -7.6 18.3 49 -16.6 2.1 0
12:21 1018 30.06 847 25.01 -7.6 18.3 47 -17 1.4 0
12:22 1018 30.06 847 25.01 -7.7 18.2 49 -16.8 1.8 0
12:23 1018 30.06 847 25.01 -7.6 18.3 49 -16.7 2 0
12:24 1018 30.06 847 25.01 -7.6 18.4 48 -16.7 1.9 0
12:25 1018 30.06 847 25.01 -7.4 18.7 47 -16.8 1.8 0
12:26 1018 30.06 847 25.01 -7.2 19.1 47 -16.7 1.9 0
12:27 1018 30.06 847 25.01 -7 19.4 47 -16.6 2.1 0
12:28 1018 30.06 847 25.01 -6.8 19.8 46 -16.7 1.9 0
12:29 1018 30.06 847 25.01 -6.6 20.2 45 -16.6 2 0
12:30 1018 30.06 847 25.01 -6.3 20.6 44 -16.8 1.8 0
12:31 1018 30.06 847 25.01 -6.3 20.7 44 -16.8 1.8 0
12:32 1018 30.06 847 25.01 -6.3 20.7 44 -16.6 2.2 0
12:33 1018 30.06 847 25.01 -6.2 20.8 44 -16.7 2 0
12:34 1018 30.06 847 25.01 -6.1 21 45 -16.3 2.6 0
12:35 1018 30.06 847 25.01 -5.9 21.4 43 -16.7 2 0
12:36 1018 30.06 847 25.01 -5.7 21.8 42 -16.7 1.9 0
12:37 1018 30.06 847 25.01 -5.6 21.9 41 -16.8 1.8 0
12:38 1018 30.06 847 25.01 -5.8 21.6 44 -16.3 2.7 0
12:39 1018 30.06 847 25.01 -6 21.2 44 -16.4 2.6 0
12:40 1018 30.06 847 25.01 -6.2 20.9 44 -16.6 2.2 0
12:41 1018 30.06 847 25.01 -6.4 20.5 44 -16.8 1.7 0
12:42 1018 30.06 847 25.01 -6.6 20.1 43 -17.2 1.1 0
12:43 1018 30.06 847 25.01 -6.6 20.2 43 -17.1 1.2 0
12:44 1018 30.06 847 25.01 -6.5 20.3 47 -16 3.1 0
12:45 1018 30.06 847 25.01 -6.6 20.2 45 -16.5 2.2 0
12:46 1018 30.06 847 25.01 -6.7 19.9 46 -16.4 2.4 0
12:47 1018 30.06 847 25.01 -6.7 19.9 46 -16.5 2.3 0
12:48 1018 30.06 847 25.01 -6.8 19.9 44 -17 1.5 0
12:49 1018 30.06 847 25.01 -6.9 19.6 45 -16.9 1.5 0
12:50 1018 30.06 847 25.01 -6.9 19.5 44 -17.1 1.1 0
12:51 1018 30.06 847 25.01 -6.9 19.5 44 -17.2 1.1 0
12:52 1018 30.06 847 25.01 -7 19.4 45 -17 1.4 0
12:53 1018 30.06 847 25.01 -7 19.4 46 -16.8 1.8 0
12:54 1018 30.06 847 25.01 -6.8 19.7 47 -16.4 2.4 0
12:55 1018 30.06 847 25.01 -6.9 19.6 46 -16.6 2.1 0
12:56 1018 30.06 847 25.01 -7 19.4 46 -16.8 1.8 0
12:57 1018 30.06 847 25.01 -7 19.4 46 -16.9 1.6 0
12:58 1018 30.06 847 25.01 -6.8 19.7 48 -16.1 3.1 0
12:59 1018 30.06 847 25.01 -6.6 20.2 45 -16.7 2 0
13:00 1018 30.06 847 25.01 -6.5 20.4 44 -16.8 1.8 0
13:01 1018 30.06 847 25.01 -6.5 20.2 46 -16.2 2.8 0
13:02 1018 30.06 847 25.01 -6.4 20.5 46 -16.2 2.8 0
13:03 1018 30.06 847 25.01 -6.1 20.9 45 -16.4 2.5 0
13:04 1018 30.06 847 25.01 -6 21.2 44 -16.4 2.4 0
13:05 1018 30.06 847 25.01 -5.9 21.3 45 -16 3.1 0
13:06 1018 30.06 847 25.01 -6 21.2 43 -16.8 1.7 0
13:07 1018 30.06 847 25.01 -6.2 20.8 48 -15.6 3.9 0
13:08 1018 30.06 847 25.01 -6.2 20.8 46 -16 3.2 0
13:09 1018 30.06 847 25.01 -6.2 20.8 44 -16.5 2.2 0
13:10 1018 30.06 847 25.01 -6.1 21 45 -16.4 2.6 0
13:11 1018 30.06 847 25.01 -5.8 21.6 43 -16.5 2.3 0
13:12 1018 30.06 847 25.01 -5.4 22.2 43 -16.1 3 0
13:13 1018 30.06 847 25.01 -5.4 22.4 44 -15.7 3.7 0
13:14 1018 30.06 847 25.01 -5.6 21.9 44 -16.1 3.1 0
13:15 1018 30.06 847 25.01 -5.8 21.6 45 -15.8 3.5 0
13:16 1018 30.06 847 25.01 -5.9 21.4 43 -16.6 2 0
13:17 1018 30.06 847 25.01 -6 21.2 45 -16.1 3 0
13:18 1018 30.06 847 25.01 -6.2 20.9 44 -16.5 2.3 0
13:19 1018 30.06 847 25.01 -6.5 20.3 48 -15.7 3.7 0
13:20 1017 30.03 847 25.01 -6.5 20.3 48 -15.7 3.7 0
13:21 1017 30.03 847 25.01 -6.7 20 46 -16.4 2.5 0
13:22 1017 30.03 847 25.01 -6.9 19.6 47 -16.4 2.5 0
13:23 1017 30.03 847 25.01 -7 19.3 47 -16.6 2.1 0
13:24 1017 30.03 847 25.01 -7.2 19.1 49 -16.3 2.7 0
13:25 1017 30.03 847 25.01 -7.2 19.1 46 -17 1.5 0
13:26 1017 30.03 847 25.01 -7.2 19.1 48 -16.4 2.5 0
13:27 1017 30.03 846 24.98 -7.1 19.2 48 -16.5 2.3 0
13:28 1017 30.03 846 24.98 -7.1 19.3 48 -16.3 2.6 0
13:29 1017 30.03 846 24.98 -7 19.4 46 -16.7 2 0
13:30 1017 30.03 846 24.98 -7 19.3 47 -16.7 2 0
13:31 1017 30.03 846 24.98 -7 19.4 48 -16.4 2.5 0
13:32 1017 30.03 846 24.98 -7 19.4 46 -16.7 1.9 0
13:33 1017 30.03 846 24.98 -7 19.4 48 -16.2 2.9 0
13:34 1017 30.03 846 24.98 -7.1 19.3 49 -16 3.2 0
13:35 1017 30.03 846 24.98 -7.2 19.1 50 -16 3.2 0
13:36 1017 30.03 846 24.98 -7.2 19 50 -16 3.2 0
13:37 1017 30.03 846 24.98 -7.2 19 51 -15.7 3.7 0
13:38 1017 30.03 846 24.98 -7.2 19.1 49 -16.3 2.7 0
13:39 1017 30.03 846 24.98 -7.1 19.1 50 -15.9 3.4 0
13:40 1017 30.03 846 24.98 -7.1 19.2 50 -15.8 3.5 0
13:41 1017 30.03 846 24.98 -7 19.3 49 -16.1 3.1 0
13:42 1017 30.03 846 24.98 -7 19.4 48 -16.3 2.6 0
13:43 1017 30.03 846 24.98 -7 19.3 48 -16.3 2.6 0
13:44 1017 30.03 846 24.98 -7 19.5 50 -15.8 3.5 0
13:45 1017 30.03 846 24.98 -6.9 19.7 50 -15.6 3.9 0
13:46 1017 30.03 846 24.98 -6.8 19.7 49 -15.8 3.6 0
13:47 1017 30.03 846 24.98 -6.8 19.7 47 -16.4 2.4 0
13:48 1017 30.03 846 24.98 -6.8 19.7 47 -16.5 2.3 0
13:49 1017 30.03 846 24.98 -6.8 19.8 47 -16.2 2.8 0
13:50 1017 30.03 846 24.98 -6.7 20 48 -16.1 3.1 0
13:51 1017 30.03 846 24.98 -6.6 20.1 51 -15.1 4.8 0
13:52 1017 30.03 846 24.98 -6.5 20.3 47 -16 3.2 0
13:53 1017 30.03 846 24.98 -6.4 20.5 47 -15.9 3.3 0
13:54 1017 30.03 846 24.98 -6.4 20.4 47 -16 3.1 0
13:55 1017 30.03 846 24.98 -6.4 20.5 46 -16.2 2.9 0
13:56 1017 30.03 846 24.98 -6.3 20.7 46 -16.2 2.9 0
13:57 1017 30.03 846 24.98 -6.3 20.7 46 -16.2 2.8 0
13:58 1017 30.03 846 24.98 -6.3 20.7 46 -16.1 3 0
13:59 1017 30.03 846 24.98 -6.1 21 46 -16.1 3.1 0
14:00 1017 30.03 846 24.98 -6.2 20.9 46 -16.1 3 0
14:01 1017 30.03 846 24.98 -6.4 20.5 45 -16.5 2.3 0
14:02 1017 30.03 846 24.98 -6.6 20.1 48 -15.9 3.4 0
14:03 1017 30.03 846 24.98 -6.8 19.9 50 -15.5 4.1 0
14:04 1017 30.03 846 24.98 -6.9 19.6 49 -15.9 3.4 0
14:05 1017 30.03 846 24.98 -7.1 19.3 50 -15.8 3.5 0
14:06 1017 30.03 846 24.98 -7.1 19.2 49 -16 3.1 0
14:07 1017 30.03 846 24.98 -7.1 19.2 49 -16.2 2.9 0
14:08 1017 30.03 846 24.98 -7.1 19.2 49 -16.1 3.1 0
14:09 1017 30.03 846 24.98 -7.2 19.1 50 -15.9 3.4 0
14:10 1017 30.03 846 24.98 -7.2 19.1 49 -16.1 3 0
14:11 1017 30.03 846 24.98 -7.1 19.2 51 -15.7 3.7 0
14:12 1017 30.03 846 24.98 -7.1 19.3 50 -15.9 3.4 0
14:13 1017 30.03 846 24.98 -7 19.4 51 -15.6 4 0
14:14 1017 30.03 846 24.98 -7 19.4 50 -15.7 3.7 0
14:15 1017 30.03 846 24.98 -6.9 19.5 49 -15.9 3.3 0
14:16 1017 30.03 846 24.98 -6.9 19.6 49 -16 3.3 0
14:17 1017 30.03 846 24.98 -6.9 19.6 49 -16 3.2 0
14:18 1017 30.03 846 24.98 -6.8 19.8 48 -16.1 3.1 0
14:19 1017 30.03 846 24.98 -6.7 19.9 48 -16 3.3 0
14:20 1017 30.03 846 24.98 -6.6 20.1 48 -16 3.2 0
14:21 1017 30.03 846 24.98 -6.6 20.2 49 -15.6 4 0
14:22 1017 30.03 846 24.98 -6.5 20.3 47 -15.9 3.3 0
14:23 1017 30.03 846 24.98 -6.2 20.8 46 -16 3.2 0
14:24 1017 30.03 846 24.98 -6.1 21.1 45 -16.2 2.9 0
14:25 1017 30.03 846 24.98 -6 21.1 46 -15.9 3.3 0
14:26 1017 30.03 846 24.98 -6 21.2 47 -15.5 4 0
14:27 1017 30.03 846 24.98 -6 21.3 48 -15.3 4.5 0
14:28 1017 30.03 846 24.98 -5.9 21.3 46 -15.8 3.6 0
14:29 1017 30.03 846 24.98 -5.9 21.3 45 -16 3.3 0
14:30 1017 30.03 846 24.98 -5.8 21.5 45 -15.9 3.3 0
14:31 1017 30.03 846 24.98 -5.8 21.5 45 -15.8 3.5 0
14:32 1017 30.03 846 24.98 -5.7 21.7 45 -15.9 3.4 0
14:33 1017 30.03 846 24.98 -5.6 21.9 45 -15.6 3.9 0
14:34 1017 30.03 846 24.98 -5.4 22.2 45 -15.5 4.1 0
14:35 1017 30.03 846 24.98 -5.4 22.2 45 -15.7 3.7 0
14:36 1017 30.03 846 24.98 -5.5 22.1 45 -15.8 3.6 0
14:37 1017 30.03 846 24.98 -5.6 21.9 45 -15.8 3.6 0
14:38 1017 30.03 846 24.98 -5.7 21.8 46 -15.7 3.8 0
14:39 1017 30.03 846 24.98 -5.8 21.6 45 -16 3.2 0
14:40 1017 30.03 846 24.98 -5.8 21.5 45 -16 3.2 0
14:41 1017 30.03 846 24.98 -5.7 21.7 45 -15.8 3.5 0
14:42 1017 30.03 846 24.98 -5.7 21.8 44 -16.1 3.1 0
14:43 1017 30.03 846 24.98 -5.6 22 44 -16.1 3 0
14:44 1017 30.03 846 24.98 -5.3 22.5 44 -15.9 3.4 0
14:45 1017 30.03 846 24.98 -4.9 23.1 43 -15.8 3.5 0
14:46 1017 30.03 846 24.98 -4.6 23.7 42 -15.7 3.7 0
14:47 1017 30.03 846 24.98 -4.5 23.9 41 -15.8 3.6 0
14:48 1017 30.03 846 24.98 -4.7 23.6 42 -15.7 3.7 0
14:49 1017 30.03 846 24.98 -4.8 23.4 43 -15.6 3.9 0
14:50 1017 30.03 846 24.98 -4.9 23.3 46 -14.9 5.2 0
14:51 1017 30.03 846 24.98 -5.1 22.8 44 -15.5 4 0
14:52 1017 30.03 846 24.98 -5.4 22.3 45 -15.5 4 0
14:53 1017 30.03 846 24.98 -5.4 22.2 45 -15.5 4.1 0
14:54 1017 30.03 846 24.98 -5.5 22.2 46 -15.3 4.5 0
14:55 1017 30.03 846 24.98 -5.5 22.1 47 -15.1 4.8 0
14:56 1017 30.03 846 24.98 -5.5 22 49 -14.7 5.5 0
14:57 1017 30.03 846 24.98 -5.7 21.8 47 -15.3 4.4 0
14:58 1017 30.03 846 24.98 -5.8 21.6 47 -15.5 4.1 0
14:59 1017 30.03 846 24.98 -5.7 21.7 48 -15 5 0
15:00 1017 30.03 846 24.98 -5.6 22 47 -15.2 4.6 0
15:01 1017 30.03 846 24.98 -5.5 22.2 46 -15.4 4.3 0
15:02 1017 30.03 846 24.98 -5.4 22.3 45 -15.4 4.2 0
15:03 1017 30.03 846 24.98 -5.3 22.4 44 -15.7 3.7 0
15:04 1017 30.03 846 24.98 -5.4 22.3 44 -15.7 3.7 0
15:05 1017 30.03 846 24.98 -5.6 21.9 49 -14.6 5.7 0
15:06 1017 30.03 846 24.98 -5.8 21.5 51 -14.4 6.1 0
15:07 1017 30.03 846 24.98 -6 21.2 50 -14.7 5.5 0
15:08 1017 30.03 846 24.98 -6.1 21 51 -14.8 5.3 0
15:09 1017 30.03 846 24.98 -6.2 20.9 50 -15 5 0
15:10 1017 30.03 846 24.98 -6.2 20.8 51 -14.9 5.2 0
15:11 1017 30.03 846 24.98 -6.3 20.6 49 -15.4 4.3 0
15:12 1017 30.03 846 24.98 -6.4 20.5 52 -14.8 5.3 0
15:13 1017 30.03 846 24.98 -6.5 20.3 52 -14.8 5.3 0
15:14 1017 30.03 846 24.98 -6.6 20.2 53 -14.5 5.8 0
15:15 1017 30.03 846 24.98 -6.5 20.3 54 -14.3 6.3 0
15:16 1017 30.03 846 24.98 -6.5 20.3 51 -15.1 4.9 0
15:17 1017 30.03 846 24.98 -6.5 20.3 53 -14.7 5.6 0
15:18 1017 30.03 846 24.98 -6.4 20.4 51 -14.9 5.2 0
15:19 1017 30.03 846 24.98 -6.4 20.5 50 -15.1 4.7 0
15:20 1017 30.03 846 24.98 -6.4 20.5 50 -15.3 4.5 0
15:21 1017 30.03 846 24.98 -6.4 20.5 49 -15.3 4.4 0
15:22 1017 30.03 846 24.98 -6.4 20.5 51 -15 5 0
15:23 1017 30.03 846 24.98 -6.3 20.7 49 -15.4 4.2 0
15:24 1017 30.03 846 24.98 -6.2 20.8 48 -15.6 3.9 0
15:25 1017 30.03 846 24.98 -6.2 20.8 49 -15.2 4.6 0
15:26 1017 30.03 846 24.98 -6.1 21.1 48 -15.5 4.2 0
15:27 1017 30.03 846 24.98 -6 21.2 48 -15.4 4.2 0
15:28 1017 30.03 846 24.98 -5.9 21.4 47 -15.5 4.1 0
15:29 1017 30.03 846 24.98 -5.8 21.5 48 -15.2 4.7 0
15:30 1017 30.03 846 24.98 -5.8 21.5 48 -15.1 4.9 0
15:31 1017 30.03 846 24.98 -5.8 21.5 48 -15.3 4.5 0
15:32 1017 30.03 846 24.98 -5.8 21.5 48 -15.3 4.5 0
15:33 1017 30.03 846 24.98 -5.8 21.5 48 -15.2 4.6 0
15:34 1017 30.03 846 24.98 -5.7 21.7 48 -15.2 4.7 0
15:35 1017 30.03 846 24.98 -5.7 21.8 49 -14.8 5.4 0
15:36 1017 30.03 846 24.98 -5.6 21.9 47 -15.3 4.4 0
15:37 1017 30.03 846 24.98 -5.7 21.8 48 -15 5 0
15:38 1017 30.03 846 24.98 -5.9 21.4 49 -15 5 0
15:39 1017 30.03 846 24.98 -6.1 20.9 50 -14.9 5.1 0
15:40 1017 30.03 846 24.98 -6.4 20.5 51 -15 4.9 0
15:41 1017 30.03 846 24.98 -6.5 20.3 49 -15.5 4 0
15:42 1017 30.03 846 24.98 -6.6 20.1 50 -15.5 4.1 0
15:43 1017 30.03 846 24.98 -6.6 20.1 50 -15.3 4.4 0
15:44 1017 30.03 846 24.98 -6.6 20.2 52 -14.9 5.1 0
15:45 1017 30.03 846 24.98 -6.6 20.1 52 -14.9 5.1 0
15:46 1017 30.03 846 24.98 -6.6 20.1 49 -15.6 3.9 0
15:47 1017 30.03 846 24.98 -6.7 20 51 -15.3 4.5 0
15:48 1017 30.03 846 24.98 -6.6 20.1 50 -15.3 4.5 0
15:49 1017 30.03 846 24.98 -6.6 20.1 54 -14.5 5.9 0
15:50 1017 30.03 846 24.98 -6.5 20.2 56 -14 6.7 0
15:51 1017 30.03 846 24.98 -6.5 20.3 54 -14.3 6.3 0
15:52 1017 30.03 846 24.98 -6.5 20.4 53 -14.5 6 0
15:53 1017 30.03 846 24.98 -6.5 20.3 51 -15.1 4.9 0
15:54 1017 30.03 846 24.98 -6.6 20.2 53 -14.7 5.6 0
15:55 1017 30.03 846 24.98 -6.6 20.1 53 -14.7 5.5 0
15:56 1017 30.03 846 24.98 -6.6 20.1 54 -14.6 5.8 0
15:57 1017 30.03 846 24.98 -6.7 20 55 -14.3 6.3 0
15:58 1017 30.03 846 24.98 -6.6 20 51 -15.1 4.9 0
15:59 1017 30.03 846 24.98 -6.6 20.1 53 -14.7 5.5 0
16:00 1017 30.03 846 24.98 -6.6 20.1 54 -14.3 6.2 0
16:01 1017 30.03 846 24.98 -6.6 20.1 56 -14.1 6.6 0
16:02 1017 30.03 846 24.98 -6.7 20 56 -14.1 6.6 0
16:03 1017 30.03 846 24.98 -6.8 19.8 55 -14.4 6 0
16:04 1017 30.03 846 24.98 -7 19.4 56 -14.4 6.1 0
16:05 1017 30.03 846 24.98 -7.1 19.2 58 -14.1 6.7 0
16:06 1017 30.03 846 24.98 -7.2 19 57 -14.3 6.2 0
16:07 1017 30.03 846 24.98 -7.2 19 58 -14.2 6.5 0
16:08 1017 30.03 846 24.98 -7.3 18.9 58 -14.2 6.4 0
16:09 1017 30.03 846 24.98 -7.3 18.8 59 -13.9 6.9 0
16:10 1017 30.03 846 24.98 -7.4 18.7 60 -13.9 6.9 0
16:11 1017 30.03 846 24.98 -7.4 18.7 60 -14 6.8 0
16:12 1017 30.03 846 24.98 -7.4 18.7 58 -14.4 6.1 0
16:13 1017 30.03 846 24.98 -7.4 18.7 56 -14.7 5.5 0
16:14 1017 30.03 846 24.98 -7.4 18.7 58 -14.4 6.2 0
16:15 1017 30.03 846 24.98 -7.4 18.8 57 -14.4 6 0
16:16 1017 30.03 846 24.98 -7.4 18.7 58 -14.3 6.2 0
16:17 1017 30.03 846 24.98 -7.4 18.8 59 -14 6.8 0
16:18 1017 30.03 846 24.98 -7.4 18.8 58 -14.3 6.3 0
16:19 1017 30.03 846 24.98 -7.4 18.7 59 -14.1 6.7 0
16:20 1017 30.03 846 24.98 -7.4 18.7 59 -14 6.7 0
16:21 1017 30.03 846 24.98 -7.3 18.8 60 -13.9 6.9 0
16:22 1017 30.03 846 24.98 -7.4 18.8 60 -14 6.9 0
16:23 1017 30.03 846 24.98 -7.4 18.7 59 -14.1 6.6 0
16:24 1017 30.03 846 24.98 -7.3 18.8 61 -13.7 7.3 0
16:25 1017 30.03 846 24.98 -7.3 18.8 59 -14 6.9 0
16:26 1017 30.03 846 24.98 -7.4 18.8 59 -14.2 6.5 0
16:27 1017 30.03 846 24.98 -7.3 18.8 59 -14 6.7 0
16:28 1017 30.03 846 24.98 -7.4 18.8 58 -14.2 6.4 0
16:29 1017 30.03 846 24.98 -7.4 18.8 58 -14.2 6.4 0
16:30 1017 30.03 846 24.98 -7.4 18.8 60 -13.9 6.9 0
16:31 1017 30.03 846 24.98 -7.4 18.6 60 -13.9 6.9 0
16:32 1017 30.03 846 24.98 -7.5 18.6 61 -13.7 7.4 0
16:33 1017 30.03 846 24.98 -7.5 18.5 61 -13.9 7.1 0
16:34 1017 30.03 846 24.98 -7.5 18.5 62 -13.6 7.5 0
16:35 1017 30.03 846 24.98 -7.5 18.4 63 -13.4 7.8 0
16:36 1017 30.03 846 24.98 -7.5 18.4 64 -13.2 8.2 0
16:37 1017 30.03 846 24.98 -7.5 18.5 60 -14.1 6.6 0
16:38 1017 30.03 846 24.98 -7.6 18.4 58 -14.5 5.8 0
16:39 1017 30.03 846 24.98 -7.6 18.3 60 -14.1 6.7 0
16:40 1017 30.03 846 24.98 -7.6 18.3 60 -14.1 6.7 0
16:41 1017 30.03 846 24.98 -7.6 18.3 63 -13.5 7.6 0
16:42 1017 30.03 846 24.98 -7.6 18.4 63 -13.4 7.9 0
16:43 1017 30.03 846 24.98 -7.6 18.3 63 -13.4 7.8 0
16:44 1017 30.03 846 24.98 -7.6 18.3 64 -13.3 8 0
16:45 1017 30.03 846 24.98 -7.7 18.2 65 -13.2 8.2 0
16:46 1017 30.03 846 24.98 -7.7 18.2 64 -13.4 8 0
16:47 1017 30.03 846 24.98 -7.7 18.2 64 -13.3 8.1 0
16:48 1017 30.03 846 24.98 -7.7 18.2 63 -13.5 7.7 0
16:49 1017 30.03 846 24.98 -7.6 18.2 62 -13.7 7.3 0
16:50 1017 30.03 846 24.98 -7.6 18.3 62 -13.6 7.5 0
16:51 1017 30.03 846 24.98 -7.6 18.3 63 -13.5 7.8 0
16:52 1017 30.03 846 24.98 -7.5 18.5 63 -13.4 7.9 0
16:53 1017 30.03 846 24.98 -7.6 18.4 63 -13.4 7.9 0
16:54 1017 30.03 846 24.98 -7.6 18.4 60 -14 6.8 0
16:55 1017 30.03 846 24.98 -7.5 18.4 61 -13.9 7.1 0
16:56 1017 30.03 846 24.98 -7.5 18.5 61 -13.8 7.1 0
16:57 1017 30.03 846 24.98 -7.5 18.5 61 -13.7 7.3 0
16:58 1017 30.03 846 24.98 -7.5 18.5 61 -13.7 7.4 0
16:59 1017 30.03 846 24.98 -7.5 18.5 62 -13.6 7.5 0
17:00 1017 30.03 846 24.98 -7.4 18.6 62 -13.5 7.7 0
17:01 1017 30.03 846 24.98 -7.4 18.6 64 -13.2 8.3 0
17:02 1017 30.03 846 24.98 -7.5 18.6 64 -13.1 8.3 0
17:03 1017 30.03 846 24.98 -7.5 18.6 63 -13.3 8 0
17:04 1017 30.03 846 24.98 -7.5 18.5 64 -13.1 8.3 0
17:05 1017 30.03 846 24.98 -7.5 18.5 64 -13.2 8.2 0
17:06 1017 30.03 846 24.98 -7.5 18.5 64 -13.2 8.3 0
17:07 1017 30.03 846 24.98 -7.5 18.5 64 -13.1 8.3 0
17:08 1017 30.03 846 24.98 -7.5 18.5 65 -13 8.6 0
17:09 1017 30.03 846 24.98 -7.5 18.5 66 -12.8 8.9 0
17:10 1017 30.03 846 24.98 -7.5 18.5 66 -12.8 9 0
17:11 1017 30.03 846 24.98 -7.6 18.4 67 -12.6 9.3 0
17:12 1017 30.03 846 24.98 -7.5 18.5 67 -12.6 9.4 0
17:13 1017 30.03 846 24.98 -7.5 18.5 65 -13 8.5 0
17:14 1017 30.03 846 24.98 -7.5 18.4 65 -13.1 8.4 0
17:15 1017 30.03 846 24.98 -7.5 18.4 65 -13 8.5 0
17:16 1017 30.03 846 24.98 -7.6 18.4 65 -13 8.5 0
17:17 1017 30.03 846 24.98 -7.6 18.4 66 -12.8 9 0
17:18 1017 30.03 846 24.98 -7.6 18.4 66 -12.8 9 0
17:19 1017 30.03 846 24.98 -7.6 18.4 68 -12.5 9.5 0
17:20 1017 30.03 846 24.98 -7.6 18.4 69 -12.2 10 0
17:21 1017 30.03 846 24.98 -7.6 18.4 71 -12 10.5 0
17:22 1017 30.03 846 24.98 -7.7 18.2 74 -11.6 11.2 0
17:23 1017 30.03 846 24.98 -7.7 18.1 75 -11.3 11.6 0
17:24 1017 30.03 846 24.98 -7.8 17.9 76 -11.4 11.6 0
17:25 1017 30.03 846 24.98 -7.9 17.9 77 -11.3 11.7 0
17:26 1017 30.03 846 24.98 -7.9 17.7 77 -11.3 11.7 0
17:27 1017 30.03 846 24.98 -7.9 17.7 77 -11.2 11.8 0
17:28 1017 30.03 846 24.98 -8 17.6 78 -11.2 11.8 0
17:29 1017 30.03 846 24.98 -8 17.6 78 -11.2 11.8 0
17:30 1017 30.03 846 24.98 -8 17.5 79 -11.1 12 0
17:31 1017 30.03 846 24.98 -8.1 17.5 78 -11.2 11.8 0
17:32 1017 30.03 846 24.98 -8.1 17.5 79 -11.1 11.9 0
17:33 1017 30.03 846 24.98 -8.1 17.5 79 -11.2 11.9 0
17:34 1017 30.03 846 24.98 -8.1 17.4 79 -11.1 12 0
17:35 1017 30.03 846 24.98 -8.1 17.4 80 -11 12.2 0
17:36 1017 30.03 846 24.98 -8.1 17.4 80 -11.1 12.1 0
17:37 1017 30.03 846 24.98 -8.2 17.3 79 -11.1 12 0
17:38 1017 30.03 846 24.98 -8.2 17.3 80 -11.1 12.1 0
17:39 1017 30.03 846 24.98 -8.1 17.4 81 -10.9 12.4 0
17:40 1017 30.03 846 24.98 -8.2 17.3 81 -10.9 12.4 0
17:41 1017 30.03 846 24.98 -8.2 17.3 81 -10.9 12.4 0
17:42 1017 30.03 846 24.98 -8.2 17.3 82 -10.7 12.7 0
17:43 1017 30.03 846 24.98 -8.2 17.2 83 -10.7 12.8 0
17:44 1017 30.03 846 24.98 -8.2 17.2 83 -10.6 12.9 0
17:45 1017 30.03 846 24.98 -8.3 17.2 83 -10.6 12.9 0
17:46 1017 30.03 846 24.98 -8.3 17.1 83 -10.6 12.9 0
17:47 1017 30.03 846 24.98 -8.3 17.1 84 -10.6 13 0
17:48 1017 30.03 846 24.98 -8.3 17 84 -10.5 13.1 0
17:49 1017 30.03 846 24.98 -8.3 17 85 -10.4 13.3 0
17:50 1017 30.03 846 24.98 -8.3 17 85 -10.4 13.2 0
17:51 1017 30.03 846 24.98 -8.4 16.9 85 -10.5 13.1 0
17:52 1017 30.03 846 24.98 -8.4 16.9 85 -10.4 13.2 0
17:53 1017 30.03 846 24.98 -8.4 16.9 85 -10.5 13.2 0
17:54 1017 30.03 846 24.98 -8.4 16.8 85 -10.5 13.1 0
17:55 1017 30.03 846 24.98 -8.4 16.9 85 -10.5 13.1 0
17:56 1017 30.03 846 24.98 -8.4 16.8 85 -10.6 13 0
17:57 1017 30.03 846 24.98 -8.4 16.9 85 -10.5 13 0
17:58 1017 30.03 846 24.98 -8.4 16.9 85 -10.5 13.2 0
17:59 1017 30.03 846 24.98 -8.4 16.9 86 -10.4 13.3 0
18:00 1017 30.03 846 24.98 -8.4 16.9 86 -10.4 13.3 0
18:01 1017 30.03 846 24.98 -8.4 16.9 86 -10.4 13.3 0
18:02 1017 30.03 846 24.98 -8.4 16.8 86 -10.4 13.4 0
18:03 1017 30.03 846 24.98 -8.4 16.8 86 -10.4 13.3 0
18:04 1017 30.03 846 24.98 -8.4 16.8 86 -10.4 13.3 0
18:05 1017 30.03 846 24.98 -8.4 16.8 86 -10.4 13.4 0
18:06 1017 30.03 846 24.98 -8.4 16.8 86 -10.4 13.3 0
18:07 1017 30.03 846 24.98 -8.4 16.9 87 -10.3 13.5 0
18:08 1017 30.03 846 24.98 -8.4 16.8 87 -10.2 13.6 0
18:09 1017 30.03 846 24.98 -8.5 16.8 87 -10.2 13.6 0
18:10 1017 30.03 846 24.98 -8.4 16.8 87 -10.2 13.6 0
18:11 1017 30.03 846 24.98 -8.4 16.8 87 -10.2 13.7 0
18:12 1017 30.03 846 24.98 -8.5 16.8 87 -10.2 13.6 0
18:13 1017 30.03 846 24.98 -8.5 16.8 88 -10.2 13.7 0
18:14 1017 30.03 846 24.98 -8.5 16.8 88 -10.1 13.7 0
18:15 1017 30.03 846 24.98 -8.5 16.7 88 -10.2 13.7 0
18:16 1017 30.03 846 24.98 -8.6 16.6 88 -10.2 13.6 0
18:17 1017 30.03 846 24.98 -8.6 16.6 88 -10.2 13.6 0
18:18 1017 30.03 846 24.98 -8.6 16.6 88 -10.2 13.6 0
18:19 1017 30.03 846 24.98 -8.6 16.5 88 -10.3 13.5 0
18:20 1017 30.03 846 24.98 -8.6 16.5 88 -10.3 13.5 0
18:21 1017 30.03 846 24.98 -8.6 16.5 88 -10.2 13.6 0
18:22 1017 30.03 846 24.98 -8.7 16.4 88 -10.3 13.5 0
18:23 1017 30.03 846 24.98 -8.7 16.4 89 -10.2 13.6 0
18:24 1017 30.03 846 24.98 -8.7 16.4 89 -10.2 13.6 0
18:25 1017 30.03 846 24.98 -8.7 16.4 89 -10.2 13.7 0
18:26 1017 30.03 846 24.98 -8.7 16.4 89 -10.2 13.7 0
18:27 1017 30.03 846 24.98 -8.6 16.4 89 -10.2 13.7 0
18:28 1017 30.03 846 24.98 -8.7 16.4 89 -10.2 13.7 0
18:29 1017 30.03 846 24.98 -8.7 16.4 89 -10.2 13.7 0
18:30 1017 30.03 846 24.98 -8.7 16.4 89 -10.2 13.7 0
18:31 1017 30.03 846 24.98 -8.6 16.5 89 -10.1 13.8 0
18:32 1017 30.03 846 24.98 -8.7 16.3 89 -10.2 13.7 0
18:33 1017 30.03 846 24.98 -8.7 16.4 89 -10.1 13.7 0
18:34 1017 30.03 846 24.98 -8.7 16.4 89 -10.1 13.8 0
18:35 1017 30.03 846 24.98 -8.7 16.4 89 -10.1 13.8 0
18:36 1017 30.03 846 24.98 -8.7 16.4 89 -10.1 13.8 0
18:37 1017 30.03 846 24.98 -8.7 16.3 89 -10.2 13.7 0
18:38 1017 30.03 846 24.98 -8.7 16.4 89 -10.2 13.7 0
18:39 1017 30.03 846 24.98 -8.7 16.3 89 -10.2 13.7 0
18:40 1017 30.03 846 24.98 -8.7 16.3 89 -10.2 13.7 0
18:41 1017 30.03 846 24.98 -8.7 16.3 89 -10.2 13.7 0
18:42 1017 30.03 846 24.98 -8.7 16.3 89 -10.2 13.7 0
18:43 1017 30.03 846 24.98 -8.8 16.3 89 -10.2 13.6 0
18:44 1017 30.03 846 24.98 -8.7 16.3 89 -10.2 13.7 0
18:45 1017 30.03 846 24.98 -8.8 16.2 89 -10.2 13.6 0
18:46 1017 30.03 846 24.98 -8.8 16.2 89 -10.2 13.6 0
18:47 1017 30.03 846 24.98 -8.8 16.2 89 -10.2 13.6 0
18:48 1017 30.03 846 24.98 -8.8 16.2 89 -10.2 13.6 0
18:49 1017 30.03 846 24.98 -8.7 16.3 89 -10.2 13.7 0
18:50 1017 30.03 846 24.98 -8.8 16.2 90 -10.2 13.6 0
18:51 1017 30.03 846 24.98 -8.8 16.2 90 -10.2 13.7 0
18:52 1017 30.03 846 24.98 -8.8 16.2 89 -10.2 13.6 0
18:53 1017 30.03 846 24.98 -8.8 16.2 89 -10.2 13.6 0
18:54 1017 30.03 846 24.98 -8.8 16.3 89 -10.2 13.6 0
18:55 1017 30.03 846 24.98 -8.7 16.3 89 -10.2 13.6 0
18:56 1017 30.03 846 24.98 -8.7 16.3 89 -10.2 13.6 0
18:57 1017 30.03 846 24.98 -8.7 16.3 89 -10.2 13.6 0
18:58 1017 30.03 846 24.98 -8.8 16.2 89 -10.2 13.6 0
18:59 1017 30.03 846 24.98 -8.8 16.2 89 -10.3 13.5 0
19:00 1017 30.03 846 24.98 -8.8 16.2 89 -10.2 13.6 0
19:01 1017 30.03 846 24.98 -8.8 16.1 89 -10.3 13.5 0
19:02 1017 30.03 846 24.98 -8.8 16.1 89 -10.3 13.5 0
19:03 1017 30.03 846 24.98 -8.8 16.1 89 -10.3 13.5 0
19:04 1017 30.03 846 24.98 -8.9 16.1 89 -10.3 13.4 0
19:05 1017 30.03 846 24.98 -8.9 16.1 89 -10.3 13.5 0
19:06 1017 30.03 846 24.98 -8.9 16 89 -10.3 13.4 0
19:07 1017 30.03 846 24.98 -8.9 16 89 -10.3 13.4 0
19:08 1017 30.03 846 24.98 -8.9 16 90 -10.3 13.4 0
19:09 1017 30.03 846 24.98 -8.9 15.9 90 -10.4 13.3 0
19:10 1017 30.03 846 24.98 -9 15.9 90 -10.4 13.3 0
19:11 1017 30.03 846 24.98 -9 15.9 90 -10.4 13.3 0
19:12 1017 30.03 846 24.98 -9 15.7 90 -10.4 13.2 0
19:13 1017 30.03 846 24.98 -9 15.7 90 -10.5 13.2 0
19:14 1017 30.03 846 24.98 -9.1 15.7 90 -10.5 13.2 0
19:15 1017 30.03 846 24.98 -9.1 15.7 90 -10.5 13.1 0
19:16 1017 30.03 846 24.98 -9.1 15.7 90 -10.5 13.2 0
19:17 1017 30.03 846 24.98 -9.1 15.6 90 -10.5 13.1 0
19:18 1017 30.03 846 24.98 -9.1 15.6 90 -10.5 13.1 0
19:19 1017 30.03 846 24.98 -9.1 15.6 90 -10.5 13.1 0
19:20 1017 30.03 846 24.98 -9.1 15.6 90 -10.5 13.1 0
19:21 1017 30.03 846 24.98 -9.1 15.6 90 -10.5 13 0
19:22 1017 30.03 846 24.98 -9.2 15.5 90 -10.5 13 0
19:23 1017 30.03 846 24.98 -9.2 15.5 90 -10.5 13 0
19:24 1017 30.03 846 24.98 -9.2 15.5 90 -10.5 13 0
19:25 1017 30.03 846 24.98 -9.2 15.5 90 -10.5 13.1 0
19:26 1017 30.03 846 24.98 -9.2 15.5 90 -10.5 13.1 0
19:27 1017 30.03 846 24.98 -9.2 15.5 90 -10.5 13.1 0
19:28 1017 30.03 846 24.98 -9.2 15.4 90 -10.6 12.9 0
19:29 1017 30.03 846 24.98 -9.2 15.5 90 -10.6 13 0
19:30 1017 30.03 846 24.98 -9.2 15.4 90 -10.6 12.9 0
19:31 1017 30.03 846 24.98 -9.3 15.4 90 -10.6 12.8 0
19:32 1017 30.03 847 25.01 -9.3 15.3 90 -10.7 12.8 0
19:33 1017 30.03 847 25.01 -9.3 15.3 90 -10.7 12.7 0
19:34 1017 30.03 847 25.01 -9.3 15.2 90 -10.7 12.8 0
19:35 1017 30.03 847 25.01 -9.4 15.1 90 -10.8 12.6 0
19:36 1017 30.03 847 25.01 -9.4 15.1 90 -10.8 12.6 0
19:37 1017 30.03 847 25.01 -9.4 15.1 90 -10.8 12.6 0
19:38 1017 30.03 847 25.01 -9.4 15 90 -10.8 12.6 0
19:39 1017 30.03 847 25.01 -9.4 15.1 90 -10.8 12.6 0
19:40 1017 30.03 847 25.01 -9.4 15.1 90 -10.8 12.6 0
19:41 1017 30.03 847 25.01 -9.5 15 90 -10.8 12.6 0
19:42 1017 30.03 847 25.01 -9.5 15 90 -10.8 12.5 0
19:43 1017 30.03 847 25.01 -9.5 15 90 -10.8 12.5 0
19:44 1017 30.03 847 25.01 -9.5 14.9 90 -10.9 12.5 0
19:45 1017 30.03 847 25.01 -9.5 14.9 90 -10.9 12.4 0
19:46 1018 30.06 847 25.01 -9.5 14.9 90 -10.8 12.5 0
19:47 1018 30.06 847 25.01 -9.5 14.9 90 -10.9 12.4 0
19:48 1018 30.06 847 25.01 -9.5 14.9 90 -10.9 12.4 0
19:49 1018 30.06 847 25.01 -9.6 14.8 90 -10.9 12.3 0
19:50 1018 30.06 847 25.01 -9.5 14.9 90 -10.9 12.4 0
19:51 1018 30.06 847 25.01 -9.5 14.9 90 -10.9 12.3 0
19:52 1018 30.06 847 25.01 -9.5 14.8 90 -11 12.3 0
19:53 1017 30.03 847 25.01 -9.6 14.8 90 -11 12.3 0
19:54 1018 30.06 847 25.01 -9.6 14.7 90 -11 12.2 0
19:55 1018 30.06 847 25.01 -9.6 14.7 90 -11 12.2 0
19:56 1018 30.06 847 25.01 -9.6 14.7 90 -11 12.2 0
19:57 1018 30.06 847 25.01 -9.6 14.8 90 -11 12.2 0
19:58 1018 30.06 847 25.01 -9.6 14.7 90 -11 12.2 0
19:59 1018 30.06 847 25.01 -9.6 14.7 90 -11 12.1 0
20:00 1018 30.06 847 25.01 -9.6 14.7 90 -11 12.1 0
20:01 1018 30.06 847 25.01 -9.6 14.8 90 -11 12.2 0
20:02 1018 30.06 847 25.01 -9.6 14.8 89 -11 12.2 0
20:03 1018 30.06 847 25.01 -9.5 14.9 89 -11 12.3 0
20:04 1018 30.06 847 25.01 -9.5 14.8 89 -11 12.2 0
20:05 1018 30.06 847 25.01 -9.5 14.9 89 -11 12.2 0
20:06 1018 30.06 847 25.01 -9.5 15 89 -10.9 12.3 0
20:07 1018 30.06 847 25.01 -9.4 15 89 -11 12.3 0
20:08 1018 30.06 847 25.01 -9.4 15.1 89 -10.9 12.4 0
20:09 1018 30.06 847 25.01 -9.4 15.2 89 -10.9 12.4 0
20:10 1018 30.06 847 25.01 -9.4 15.1 89 -10.9 12.3 0
20:11 1018 30.06 847 25.01 -9.4 15.2 89 -10.9 12.3 0
20:12 1018 30.06 847 25.01 -9.4 15.2 89 -10.9 12.3 0
20:13 1018 30.06 847 25.01 -9.4 15.2 88 -10.9 12.3 0
20:14 1018 30.06 847 25.01 -9.3 15.2 88 -10.9 12.3 0
20:15 1018 30.06 847 25.01 -9.3 15.2 88 -10.9 12.3 0
20:16 1018 30.06 847 25.01 -9.4 15.2 88 -10.9 12.3 0
20:17 1018 30.06 847 25.01 -9.3 15.2 88 -10.9 12.3 0
20:18 1018 30.06 847 25.01 -9.3 15.3 88 -10.9 12.4 0
20:19 1018 30.06 847 25.01 -9.3 15.2 88 -10.9 12.3 0
20:20 1018 30.06 847 25.01 -9.3 15.3 88 -10.9 12.3 0
20:21 1018 30.06 847 25.01 -9.3 15.3 88 -10.9 12.4 0
20:22 1018 30.06 847 25.01 -9.3 15.2 88 -11 12.3 0
20:23 1018 30.06 847 25.01 -9.3 15.3 88 -10.9 12.3 0
20:24 1018 30.06 847 25.01 -9.3 15.3 88 -10.9 12.3 0
20:25 1018 30.06 847 25.01 -9.3 15.2 88 -10.9 12.3 0
20:26 1018 30.06 847 25.01 -9.3 15.2 88 -10.9 12.3 0
20:27 1018 30.06 847 25.01 -9.3 15.3 88 -10.9 12.4 0
20:28 1018 30.06 847 25.01 -9.3 15.3 88 -10.9 12.4 0
20:29 1018 30.06 847 25.01 -9.3 15.3 88 -10.9 12.4 0
20:30 1018 30.06 847 25.01 -9.3 15.3 88 -10.9 12.4 0
20:31 1018 30.06 847 25.01 -9.3 15.4 88 -10.9 12.5 0
20:32 1018 30.06 847 25.01 -9.2 15.4 88 -10.8 12.5 0
20:33 1018 30.06 847 25.01 -9.2 15.4 88 -10.8 12.6 0
20:34 1018 30.06 847 25.01 -9.1 15.5 88 -10.8 12.6 0
20:35 1018 30.06 847 25.01 -9.1 15.6 88 -10.8 12.6 0
20:36 1018 30.06 847 25.01 -9.1 15.6 87 -10.9 12.5 0
20:37 1018 30.06 847 25.01 -9.2 15.5 87 -10.9 12.4 0
20:38 1018 30.06 847 25.01 -9.2 15.4 88 -10.9 12.4 0
20:39 1018 30.06 847 25.01 -9.2 15.4 88 -10.9 12.4 0
20:40 1018 30.06 847 25.01 -9.2 15.4 88 -10.9 12.4 0
20:41 1018 30.06 847 25.01 -9.2 15.4 88 -10.9 12.4 0
20:42 1018 30.06 847 25.01 -9.3 15.3 88 -10.9 12.3 0
20:43 1018 30.06 847 25.01 -9.3 15.4 88 -10.9 12.4 0
20:44 1018 30.06 847 25.01 -9.3 15.3 88 -10.9 12.4 0
20:45 1018 30.06 847 25.01 -9.2 15.4 88 -10.8 12.5 0
20:46 1018 30.06 847 25.01 -9.2 15.5 88 -10.9 12.4 0
20:47 1018 30.06 847 25.01 -9.2 15.5 88 -10.8 12.6 0
20:48 1018 30.06 847 25.01 -9.1 15.6 88 -10.8 12.6 0
20:49 1018 30.06 847 25.01 -9.1 15.7 87 -10.8 12.6 0
20:50 1018 30.06 847 25.01 -9.1 15.7 88 -10.8 12.6 0
20:51 1018 30.06 847 25.01 -9.1 15.7 87 -10.8 12.6 0
20:52 1018 30.06 847 25.01 -9 15.7 87 -10.8 12.6 0
20:53 1018 30.06 847 25.01 -9 15.7 87 -10.8 12.6 0
20:54 1018 30.06 847 25.01 -9.1 15.7 87 -10.9 12.4 0
20:55 1018 30.06 847 25.01 -9.1 15.7 87 -10.9 12.4 0
20:56 1018 30.06 847 25.01 -9.1 15.5 87 -10.9 12.3 0
20:57 1018 30.06 847 25.01 -9.2 15.5 87 -10.9 12.4 0
20:58 1018 30.06 847 25.01 -9.1 15.6 88 -10.8 12.5 0
20:59 1018 30.06 847 25.01 -9.1 15.7 88 -10.7 12.7 0
21:00 1018 30.06 847 25.01 -9 15.8 87 -10.8 12.6 0
21:01 1018 30.06 847 25.01 -9 15.9 87 -10.7 12.7 0
21:02 1018 30.06 847 25.01 -8.9 15.9 87 -10.7 12.7 0
21:03 1018 30.06 847 25.01 -9 15.9 87 -10.8 12.5 0
21:04 1018 30.06 847 25.01 -9 15.8 87 -10.8 12.5 0
21:05 1018 30.06 847 25.01 -9 15.9 87 -10.8 12.6 0
21:06 1018 30.06 847 25.01 -9 15.8 87 -10.9 12.4 0
21:07 1018 30.06 847 25.01 -9.1 15.6 87 -10.9 12.3 0
21:08 1018 30.06 847 25.01 -9.2 15.5 87 -11 12.2 0
21:09 1018 30.06 847 25.01 -9.2 15.4 87 -11 12.3 0
21:10 1018 30.06 847 25.01 -9.3 15.3 87 -11 12.2 0
21:11 1018 30.06 847 25.01 -9.3 15.3 87 -11 12.2 0
21:12 1018 30.06 847 25.01 -9.2 15.4 87 -11 12.3 0
21:13 1018 30.06 847 25.01 -9.2 15.4 88 -10.9 12.4 0
21:14 1018 30.06 847 25.01 -9.2 15.5 87 -10.9 12.4 0
21:15 1018 30.06 847 25.01 -9.1 15.5 87 -10.9 12.4 0
21:16 1018 30.06 847 25.01 -9.1 15.6 87 -10.9 12.5 0
21:17 1018 30.06 847 25.01 -9.1 15.7 87 -10.8 12.5 0
21:18 1018 30.06 847 25.01 -9 15.7 87 -10.8 12.5 0
21:19 1018 30.06 847 25.01 -9 15.8 87 -10.8 12.5 0
21:20 1018 30.06 847 25.01 -9 15.8 87 -10.8 12.5 0
21:21 1018 30.06 847 25.01 -9 15.8 87 -10.8 12.5 0
21:22 1018 30.06 847 25.01 -9 15.8 87 -10.8 12.5 0
21:23 1018 30.06 847 25.01 -9 15.8 87 -10.8 12.6 0
21:24 1018 30.06 847 25.01 -9 15.8 87 -10.8 12.6 0
21:25 1018 30.06 847 25.01 -9 15.8 87 -10.8 12.6 0
21:26 1018 30.06 847 25.01 -9 15.8 87 -10.8 12.5 0
21:27 1018 30.06 847 25.01 -9 15.9 87 -10.8 12.6 0
21:28 1018 30.06 847 25.01 -9 15.8 87 -10.8 12.6 0
21:29 1018 30.06 847 25.01 -9 15.8 87 -10.8 12.6 0
21:30 1018 30.06 847 25.01 -9 15.8 87 -10.7 12.7 0
21:31 1018 30.06 847 25.01 -9 15.8 87 -10.8 12.6 0
21:32 1018 30.06 847 25.01 -9 15.8 87 -10.8 12.6 0
21:33 1018 30.06 847 25.01 -9 15.8 87 -10.8 12.6 0
21:34 1018 30.06 847 25.01 -9 15.8 87 -10.8 12.6 0
21:35 1018 30.06 847 25.01 -9 15.7 87 -10.8 12.5 0
21:36 1018 30.06 847 25.01 -9.1 15.7 87 -10.8 12.5 0
21:37 1018 30.06 847 25.01 -9.1 15.7 87 -10.9 12.5 0
21:38 1018 30.06 847 25.01 -9.1 15.6 87 -10.9 12.4 0
21:39 1018 30.06 847 25.01 -9.1 15.7 87 -10.8 12.5 0
21:40 1018 30.06 847 25.01 -9.1 15.6 87 -10.8 12.5 0
21:41 1018 30.06 847 25.01 -9.1 15.6 87 -10.8 12.5 0
21:42 1018 30.06 847 25.01 -9.1 15.6 87 -10.9 12.5 0
21:43 1018 30.06 847 25.01 -9.1 15.5 88 -10.8 12.5 0
21:44 1018 30.06 847 25.01 -9.2 15.5 88 -10.8 12.5 0
21:45 1018 30.06 847 25.01 -9.2 15.4 88 -10.8 12.5 0
21:46 1018 30.06 847 25.01 -9.2 15.5 88 -10.8 12.6 0
21:47 1018 30.06 847 25.01 -9.1 15.6 88 -10.8 12.6 0
21:48 1018 30.06 847 25.01 -9 15.7 88 -10.7 12.7 0
21:49 1018 30.06 847 25.01 -9.1 15.7 87 -10.8 12.6 0
21:50 1018 30.06 847 25.01 -9 15.8 87 -10.8 12.6 0
21:51 1018 30.06 847 25.01 -9 15.8 87 -10.8 12.5 0
21:52 1018 30.06 847 25.01 -9 15.8 87 -10.8 12.5 0
21:53 1018 30.06 847 25.01 -9 15.8 87 -10.9 12.5 0
21:54 1018 30.06 847 25.01 -9 15.8 87 -10.8 12.5 0
21:55 1018 30.06 847 25.01 -9 15.8 86 -10.9 12.5 0
21:56 1018 30.06 847 25.01 -9 15.8 86 -10.9 12.4 0
21:57 1018 30.06 847 25.01 -9 15.8 86 -10.9 12.4 0
21:58 1018 30.06 847 25.01 -9 15.8 86 -10.9 12.4 0
21:59 1018 30.06 847 25.01 -9 15.8 86 -10.9 12.3 0
22:00 1018 30.06 847 25.01 -9 15.8 86 -10.9 12.4 0
22:01 1018 30.06 847 25.01 -9.1 15.7 86 -10.9 12.3 0
22:02 1018 30.06 847 25.01 -9.1 15.6 86 -11 12.3 0
22:03 1018 30.06 847 25.01 -9.1 15.7 87 -10.9 12.3 0
22:04 1018 30.06 847 25.01 -9.1 15.6 87 -10.9 12.3 0
22:05 1018 30.06 847 25.01 -9.1 15.5 87 -11 12.2 0
22:06 1018 30.06 847 25.01 -9.2 15.5 87 -11 12.2 0
22:07 1018 30.06 847 25.01 -9.1 15.5 87 -11 12.2 0
22:08 1018 30.06 847 25.01 -9.2 15.5 87 -11 12.2 0
22:09 1018 30.06 847 25.01 -9.2 15.5 87 -11 12.1 0
22:10 1018 30.06 847 25.01 -9.2 15.4 87 -11.1 12.1 0
22:11 1018 30.06 847 25.01 -9.2 15.4 87 -11.1 12 0
22:12 1018 30.06 847 25.01 -9.3 15.3 87 -11.1 12 0
22:13 1018 30.06 847 25.01 -9.3 15.3 87 -11.1 12 0
22:14 1018 30.06 847 25.01 -9.3 15.3 87 -11.1 12.1 0
22:15 1018 30.06 847 25.01 -9.3 15.3 87 -11.1 12.1 0
22:16 1018 30.06 847 25.01 -9.3 15.3 87 -11.1 12.1 0
22:17 1018 30.06 847 25.01 -9.3 15.3 87 -11.1 12 0
22:18 1018 30.06 847 25.01 -9.3 15.3 87 -11.1 12 0
22:19 1018 30.06 847 25.01 -9.2 15.4 86 -11.1 12 0
22:20 1018 30.06 847 25.01 -9.3 15.3 86 -11.2 11.8 0
22:21 1018 30.06 847 25.01 -9.3 15.4 86 -11.2 11.8 0
22:22 1018 30.06 847 25.01 -9.3 15.3 85 -11.3 11.7 0
22:23 1018 30.06 847 25.01 -9.3 15.3 85 -11.3 11.6 0
22:24 1018 30.06 847 25.01 -9.2 15.4 85 -11.3 11.7 0
22:25 1018 30.06 847 25.01 -9.3 15.3 85 -11.4 11.5 0
22:26 1018 30.06 847 25.01 -9.3 15.2 85 -11.4 11.5 0
22:27 1018 30.06 847 25.01 -9.4 15.2 85 -11.5 11.4 0
22:28 1018 30.06 847 25.01 -9.4 15.2 85 -11.4 11.4 0
22:29 1018 30.06 847 25.01 -9.5 14.9 85 -11.6 11.2 0
22:30 1018 30.06 847 25.01 -9.5 14.9 85 -11.6 11.1 0
22:31 1018 30.06 847 25.01 -9.5 14.9 85 -11.6 11.1 0
22:32 1018 30.06 847 25.01 -9.5 14.8 85 -11.7 11 0
22:33 1018 30.06 847 25.01 -9.5 14.8 84 -11.7 10.9 0
22:34 1018 30.06 847 25.01 -9.6 14.8 84 -11.8 10.8 0
22:35 1018 30.06 847 25.01 -9.6 14.7 84 -11.8 10.7 0
22:36 1018 30.06 847 25.01 -9.6 14.7 84 -11.8 10.7 0
22:37 1018 30.06 847 25.01 -9.6 14.8 84 -11.8 10.8 0
22:38 1018 30.06 847 25.01 -9.6 14.7 84 -11.9 10.6 0
22:39 1018 30.06 847 25.01 -9.7 14.6 84 -11.9 10.6 0
22:40 1018 30.06 847 25.01 -9.7 14.6 84 -11.9 10.6 0
22:41 1018 30.06 847 25.01 -9.7 14.6 84 -11.9 10.7 0
22:42 1018 30.06 847 25.01 -9.7 14.6 84 -11.9 10.6 0
22:43 1018 30.06 847 25.01 -9.7 14.6 84 -11.9 10.7 0
22:44 1018 30.06 847 25.01 -9.7 14.6 84 -11.8 10.7 0
22:45 1018 30.06 847 25.01 -9.7 14.6 85 -11.8 10.8 0
22:46 1018 30.06 847 25.01 -9.7 14.6 85 -11.8 10.7 0
22:47 1018 30.06 847 25.01 -9.7 14.6 85 -11.8 10.7 0
22:48 1018 30.06 847 25.01 -9.7 14.5 85 -11.8 10.7 0
22:49 1018 30.06 847 25.01 -9.7 14.6 85 -11.8 10.8 0
22:50 1018 30.06 847 25.01 -9.7 14.6 85 -11.8 10.8 0
22:51 1018 30.06 847 25.01 -9.6 14.7 84 -11.8 10.8 0
22:52 1018 30.06 847 25.01 -9.6 14.8 84 -11.7 10.9 0
22:53 1018 30.06 847 25.01 -9.5 14.9 84 -11.7 10.9 0
22:54 1018 30.06 847 25.01 -9.5 14.9 84 -11.7 10.9 0
22:55 1018 30.06 847 25.01 -9.4 15.2 83 -11.7 10.9 0
22:56 1018 30.06 847 25.01 -9.3 15.2 83 -11.7 10.9 0
22:57 1018 30.06 847 25.01 -9.2 15.4 82 -11.7 10.9 0
22:58 1018 30.06 847 25.01 -9.2 15.5 82 -11.8 10.8 0
22:59 1018 30.06 847 25.01 -9.2 15.5 81 -11.8 10.8 0
23:00 1018 30.06 847 25.01 -9.2 15.5 82 -11.7 11 0
23:01 1018 30.06 847 25.01 -9.2 15.5 82 -11.7 11 0
23:02 1018 30.06 847 25.01 -9.2 15.5 82 -11.7 10.9 0
23:03 1018 30.06 847 25.01 -9.2 15.5 81 -11.8 10.8 0
23:04 1018 30.06 847 25.01 -9.2 15.4 81 -11.9 10.6 0
23:05 1018 30.06 847 25.01 -9.3 15.3 83 -11.7 10.9 0
23:06 1018 30.06 847 25.01 -9.3 15.3 83 -11.7 10.9 0
23:07 1018 30.06 847 25.01 -9.3 15.3 83 -11.7 10.9 0
23:08 1018 30.06 847 25.01 -9.3 15.3 83 -11.6 11.1 0
23:09 1018 30.06 847 25.01 -9.3 15.3 83 -11.6 11.1 0
23:10 1018 30.06 847 25.01 -9.3 15.3 83 -11.7 11 0
23:11 1018 30.06 847 25.01 -9.2 15.4 82 -11.7 10.9 0
23:12 1018 30.06 847 25.01 -9.3 15.2 82 -11.8 10.8 0
23:13 1018 30.06 847 25.01 -9.4 15 83 -11.9 10.6 0
23:14 1018 30.06 847 25.01 -9.5 14.9 83 -11.9 10.6 0
23:15 1018 30.06 847 25.01 -9.6 14.8 82 -12.1 10.2 0
23:16 1018 30.06 847 25.01 -9.7 14.6 83 -12 10.3 0
23:17 1018 30.06 847 25.01 -9.8 14.5 85 -11.9 10.6 0
23:18 1018 30.06 847 25.01 -9.8 14.4 86 -11.6 11 0
23:19 1018 30.06 847 25.01 -9.8 14.4 87 -11.6 11.1 0
23:20 1018 30.06 847 25.01 -9.8 14.4 88 -11.4 11.4 0
23:21 1018 30.06 847 25.01 -9.8 14.4 87 -11.6 11.2 0
23:22 1018 30.06 847 25.01 -9.8 14.3 87 -11.6 11 0
23:23 1018 30.06 847 25.01 -10 14.1 87 -11.8 10.8 0
23:24 1018 30.06 847 25.01 -10.1 13.9 88 -11.6 11 0
23:25 1018 30.06 847 25.01 -10 13.9 89 -11.5 11.3 0
23:26 1018 30.06 847 25.01 -10.1 13.9 88 -11.6 11 0
23:27 1017 30.03 847 25.01 -10 14 89 -11.4 11.4 0
23:28 1017 30.03 847 25.01 -10 14 90 -11.4 11.5 0
23:29 1017 30.03 847 25.01 -10 13.9 89 -11.5 11.4 0
23:30 1018 30.06 847 25.01 -10 14.1 89 -11.4 11.4 0
23:31 1018 30.06 847 25.01 -10 14 89 -11.5 11.3 0
23:32 1018 30.06 847 25.01 -10 14 88 -11.6 11.2 0
23:33 1018 30.06 847 25.01 -10.1 13.9 88 -11.8 10.8 0
23:34 1018 30.06 847 25.01 -10.2 13.7 89 -11.7 10.9 0
23:35 1018 30.06 847 25.01 -10.3 13.4 90 -11.7 11 0
23:36 1018 30.06 847 25.01 -10.4 13.4 90 -11.6 11 0
23:37 1018 30.06 847 25.01 -10.4 13.3 91 -11.5 11.2 0
23:38 1018 30.06 847 25.01 -10.4 13.4 92 -11.4 11.4 0
23:39 1018 30.06 847 25.01 -10.4 13.4 92 -11.5 11.4 0
23:40 1018 30.06 847 25.01 -10.4 13.4 92 -11.4 11.4 0
23:41 1018 30.06 847 25.01 -10.4 13.3 92 -11.4 11.5 0
23:42 1018 30.06 847 25.01 -10.4 13.3 93 -11.4 11.5 0
23:43 1018 30.06 847 25.01 -10.5 13.2 92 -11.5 11.3 0
23:44 1018 30.06 847 25.01 -10.6 13 92 -11.6 11.2 0
23:45 1018 30.06 847 25.01 -10.6 12.8 93 -11.5 11.2 0
23:46 1018 30.06 847 25.01 -10.7 12.8 94 -11.4 11.4 0
23:47 1018 30.06 847 25.01 -10.6 12.9 95 -11.3 11.6 0
23:48 1018 30.06 847 25.01 -10.5 13 95 -11.2 11.8 0
23:49 1018 30.06 847 25.01 -10.6 12.9 87 -12.4 9.8 0
23:50 1018 30.06 847 25.01 -11.1 12.1 91 -12.2 10 0
23:51 1018 30.06 847 25.01 -11.2 11.9 93 -12.1 10.2 0
23:52 1018 30.06 847 25.01 -11.2 11.9 95 -11.9 10.6 0
23:53 1018 30.06 847 25.01 -11.2 11.8 92 -12.3 9.9 0
23:54 1018 30.06 847 25.01 -11.5 11.3 91 -12.7 9.2 0
23:55 1018 30.06 847 25.01 -11.6 11.1 94 -12.4 9.6 0
23:56 1018 30.06 847 25.01 -11.5 11.3 96 -12.1 10.3 0
23:57 1018 30.06 847 25.01 -11.3 11.6 96 -11.8 10.8 0
23:58 1018 30.06 847 25.01 -11.2 11.9 97 -11.6 11.1 0
23:59 1018 30.06 847 25.01 -11 12.1 96 -11.6 11.2 0
24:00 1018 30.06 847 25.01 -11.3 11.7 86 -13.2 8.3 0